<?xml version="1.0" encoding="UTF-8" standalone="no" ?>
<gpx xmlns="http://www.topografix.com/GPX/1/1" xmlns:xsi="http://www.w3.org/2001/XMLSchema-instance" xsi:schemaLocation="http://www.topografix.com/GPX/1/1 http://www.topografix.com/GPX/1/1/gpx.xsd" version="1.1" creator="VisuGPX - https://www.visugpx.com">
  <metadata>
    <name>Les crêtes du Mont Veyrier</name>
    <desc><![CDATA[Randonnée caf]]></desc>
  </metadata>
  <trk>
    <name><![CDATA[Veyrier 2]]></name>
    <trkseg>
      <trkpt lat="45.89674" lon="6.18605">
        <ele>1280</ele>
        <time>2013-05-05T12:26:17Z</time>
      </trkpt>
      <trkpt lat="45.89671" lon="6.18601">
        <ele>1281</ele>
        <time>2013-05-05T12:26:34Z</time>
      </trkpt>
      <trkpt lat="45.89671" lon="6.186">
        <ele>1281</ele>
        <time>2013-05-05T12:26:57Z</time>
      </trkpt>
      <trkpt lat="45.89672" lon="6.18601">
        <ele>1280</ele>
        <time>2013-05-05T12:27:20Z</time>
      </trkpt>
      <trkpt lat="45.8967" lon="6.18598">
        <ele>1280</ele>
        <time>2013-05-05T12:28:06Z</time>
      </trkpt>
      <trkpt lat="45.89672" lon="6.18598">
        <ele>1279</ele>
        <time>2013-05-05T12:28:22Z</time>
      </trkpt>
      <trkpt lat="45.89672" lon="6.18599">
        <ele>1280</ele>
        <time>2013-05-05T12:28:47Z</time>
      </trkpt>
      <trkpt lat="45.89677" lon="6.186">
        <ele>1282</ele>
        <time>2013-05-05T12:29:13Z</time>
      </trkpt>
      <trkpt lat="45.89679" lon="6.18601">
        <ele>1284</ele>
        <time>2013-05-05T12:29:17Z</time>
      </trkpt>
      <trkpt lat="45.89681" lon="6.18601">
        <ele>1285</ele>
        <time>2013-05-05T12:29:23Z</time>
      </trkpt>
      <trkpt lat="45.89683" lon="6.18598">
        <ele>1286</ele>
        <time>2013-05-05T12:29:35Z</time>
      </trkpt>
      <trkpt lat="45.89685" lon="6.186">
        <ele>1285</ele>
        <time>2013-05-05T12:30:20Z</time>
      </trkpt>
      <trkpt lat="45.89684" lon="6.186">
        <ele>1286</ele>
        <time>2013-05-05T12:31:01Z</time>
      </trkpt>
      <trkpt lat="45.89685" lon="6.18598">
        <ele>1284</ele>
        <time>2013-05-05T12:31:33Z</time>
      </trkpt>
      <trkpt lat="45.89687" lon="6.18599">
        <ele>1285</ele>
        <time>2013-05-05T12:31:47Z</time>
      </trkpt>
      <trkpt lat="45.89685" lon="6.18606">
        <ele>1287</ele>
        <time>2013-05-05T12:32:05Z</time>
      </trkpt>
      <trkpt lat="45.89683" lon="6.18607">
        <ele>1287</ele>
        <time>2013-05-05T12:32:09Z</time>
      </trkpt>
      <trkpt lat="45.89677" lon="6.18619">
        <ele>1288</ele>
        <time>2013-05-05T12:32:22Z</time>
      </trkpt>
      <trkpt lat="45.89675" lon="6.18629">
        <ele>1288</ele>
        <time>2013-05-05T12:32:35Z</time>
      </trkpt>
      <trkpt lat="45.89674" lon="6.1864">
        <ele>1291</ele>
        <time>2013-05-05T12:32:46Z</time>
      </trkpt>
      <trkpt lat="45.89677" lon="6.18642">
        <ele>1291</ele>
        <time>2013-05-05T12:32:58Z</time>
      </trkpt>
      <trkpt lat="45.8968" lon="6.18641">
        <ele>1295</ele>
        <time>2013-05-05T12:33:06Z</time>
      </trkpt>
      <trkpt lat="45.89686" lon="6.18638">
        <ele>1297</ele>
        <time>2013-05-05T12:33:18Z</time>
      </trkpt>
      <trkpt lat="45.89685" lon="6.1864">
        <ele>1299</ele>
        <time>2013-05-05T12:33:30Z</time>
      </trkpt>
      <trkpt lat="45.89682" lon="6.18647">
        <ele>1297</ele>
        <time>2013-05-05T12:33:42Z</time>
      </trkpt>
      <trkpt lat="45.89681" lon="6.18648">
        <ele>1297</ele>
        <time>2013-05-05T12:33:43Z</time>
      </trkpt>
      <trkpt lat="45.89678" lon="6.18664">
        <ele>1298</ele>
        <time>2013-05-05T12:34:00Z</time>
      </trkpt>
      <trkpt lat="45.89676" lon="6.18668">
        <ele>1298</ele>
        <time>2013-05-05T12:34:05Z</time>
      </trkpt>
      <trkpt lat="45.89676" lon="6.18675">
        <ele>1296</ele>
        <time>2013-05-05T12:34:13Z</time>
      </trkpt>
      <trkpt lat="45.89671" lon="6.18683">
        <ele>1294</ele>
        <time>2013-05-05T12:34:22Z</time>
      </trkpt>
      <trkpt lat="45.89661" lon="6.18685">
        <ele>1294</ele>
        <time>2013-05-05T12:34:35Z</time>
      </trkpt>
      <trkpt lat="45.89655" lon="6.1869">
        <ele>1294</ele>
        <time>2013-05-05T12:34:47Z</time>
      </trkpt>
      <trkpt lat="45.89651" lon="6.18693">
        <ele>1291</ele>
        <time>2013-05-05T12:34:59Z</time>
      </trkpt>
      <trkpt lat="45.89648" lon="6.18694">
        <ele>1291</ele>
        <time>2013-05-05T12:35:04Z</time>
      </trkpt>
      <trkpt lat="45.89642" lon="6.18694">
        <ele>1291</ele>
        <time>2013-05-05T12:35:12Z</time>
      </trkpt>
      <trkpt lat="45.89635" lon="6.18695">
        <ele>1293</ele>
        <time>2013-05-05T12:35:25Z</time>
      </trkpt>
      <trkpt lat="45.8963" lon="6.187">
        <ele>1290</ele>
        <time>2013-05-05T12:35:39Z</time>
      </trkpt>
      <trkpt lat="45.89629" lon="6.18702">
        <ele>1288</ele>
        <time>2013-05-05T12:35:45Z</time>
      </trkpt>
      <trkpt lat="45.89626" lon="6.18705">
        <ele>1286</ele>
        <time>2013-05-05T12:35:53Z</time>
      </trkpt>
      <trkpt lat="45.89621" lon="6.18711">
        <ele>1286</ele>
        <time>2013-05-05T12:36:05Z</time>
      </trkpt>
      <trkpt lat="45.89617" lon="6.18714">
        <ele>1285</ele>
        <time>2013-05-05T12:36:22Z</time>
      </trkpt>
      <trkpt lat="45.89617" lon="6.18716">
        <ele>1285</ele>
        <time>2013-05-05T12:36:24Z</time>
      </trkpt>
      <trkpt lat="45.89611" lon="6.18724">
        <ele>1282</ele>
        <time>2013-05-05T12:36:37Z</time>
      </trkpt>
      <trkpt lat="45.89605" lon="6.18729">
        <ele>1279</ele>
        <time>2013-05-05T12:36:48Z</time>
      </trkpt>
      <trkpt lat="45.89602" lon="6.1873">
        <ele>1275</ele>
        <time>2013-05-05T12:37:01Z</time>
      </trkpt>
      <trkpt lat="45.89602" lon="6.1873">
        <ele>1275</ele>
        <time>2013-05-05T12:37:02Z</time>
      </trkpt>
      <trkpt lat="45.89599" lon="6.18729">
        <ele>1274</ele>
        <time>2013-05-05T12:37:06Z</time>
      </trkpt>
      <trkpt lat="45.89591" lon="6.18727">
        <ele>1271</ele>
        <time>2013-05-05T12:37:17Z</time>
      </trkpt>
      <trkpt lat="45.89584" lon="6.18726">
        <ele>1267</ele>
        <time>2013-05-05T12:37:27Z</time>
      </trkpt>
      <trkpt lat="45.89582" lon="6.18727">
        <ele>1267</ele>
        <time>2013-05-05T12:37:29Z</time>
      </trkpt>
      <trkpt lat="45.89578" lon="6.18732">
        <ele>1266</ele>
        <time>2013-05-05T12:37:33Z</time>
      </trkpt>
      <trkpt lat="45.89577" lon="6.18736">
        <ele>1267</ele>
        <time>2013-05-05T12:37:36Z</time>
      </trkpt>
      <trkpt lat="45.89567" lon="6.18746">
        <ele>1267</ele>
        <time>2013-05-05T12:37:48Z</time>
      </trkpt>
      <trkpt lat="45.89559" lon="6.1875">
        <ele>1266</ele>
        <time>2013-05-05T12:38:02Z</time>
      </trkpt>
      <trkpt lat="45.89551" lon="6.18755">
        <ele>1265</ele>
        <time>2013-05-05T12:38:23Z</time>
      </trkpt>
      <trkpt lat="45.89538" lon="6.18763">
        <ele>1263</ele>
        <time>2013-05-05T12:38:38Z</time>
      </trkpt>
      <trkpt lat="45.89531" lon="6.18761">
        <ele>1263</ele>
        <time>2013-05-05T12:38:48Z</time>
      </trkpt>
      <trkpt lat="45.8953" lon="6.18761">
        <ele>1262</ele>
        <time>2013-05-05T12:38:50Z</time>
      </trkpt>
      <trkpt lat="45.89527" lon="6.18759">
        <ele>1266</ele>
        <time>2013-05-05T12:38:54Z</time>
      </trkpt>
      <trkpt lat="45.89518" lon="6.1876">
        <ele>1267</ele>
        <time>2013-05-05T12:39:08Z</time>
      </trkpt>
      <trkpt lat="45.89513" lon="6.1876">
        <ele>1268</ele>
        <time>2013-05-05T12:39:19Z</time>
      </trkpt>
      <trkpt lat="45.89511" lon="6.18761">
        <ele>1266</ele>
        <time>2013-05-05T12:39:22Z</time>
      </trkpt>
      <trkpt lat="45.89508" lon="6.18763">
        <ele>1266</ele>
        <time>2013-05-05T12:39:37Z</time>
      </trkpt>
      <trkpt lat="45.89502" lon="6.1877">
        <ele>1265</ele>
        <time>2013-05-05T12:39:51Z</time>
      </trkpt>
      <trkpt lat="45.895" lon="6.1877">
        <ele>1263</ele>
        <time>2013-05-05T12:40:00Z</time>
      </trkpt>
      <trkpt lat="45.89498" lon="6.18766">
        <ele>1264</ele>
        <time>2013-05-05T12:40:14Z</time>
      </trkpt>
      <trkpt lat="45.89497" lon="6.18767">
        <ele>1259</ele>
        <time>2013-05-05T12:40:16Z</time>
      </trkpt>
      <trkpt lat="45.89497" lon="6.18768">
        <ele>1259</ele>
        <time>2013-05-05T12:40:17Z</time>
      </trkpt>
      <trkpt lat="45.89497" lon="6.18768">
        <ele>1264</ele>
        <time>2013-05-05T12:40:18Z</time>
      </trkpt>
      <trkpt lat="45.89497" lon="6.18768">
        <ele>1261</ele>
        <time>2013-05-05T12:40:19Z</time>
      </trkpt>
      <trkpt lat="45.89495" lon="6.18774">
        <ele>1256</ele>
        <time>2013-05-05T12:40:32Z</time>
      </trkpt>
      <trkpt lat="45.89495" lon="6.18775">
        <ele>1260</ele>
        <time>2013-05-05T12:40:34Z</time>
      </trkpt>
      <trkpt lat="45.89495" lon="6.18775">
        <ele>1259</ele>
        <time>2013-05-05T12:40:35Z</time>
      </trkpt>
      <trkpt lat="45.89495" lon="6.18777">
        <ele>1257</ele>
        <time>2013-05-05T12:40:42Z</time>
      </trkpt>
      <trkpt lat="45.89497" lon="6.18782">
        <ele>1256</ele>
        <time>2013-05-05T12:40:54Z</time>
      </trkpt>
      <trkpt lat="45.895" lon="6.18785">
        <ele>1252</ele>
        <time>2013-05-05T12:41:03Z</time>
      </trkpt>
      <trkpt lat="45.89496" lon="6.18789">
        <ele>1250</ele>
        <time>2013-05-05T12:41:18Z</time>
      </trkpt>
      <trkpt lat="45.89491" lon="6.18792">
        <ele>1249</ele>
        <time>2013-05-05T12:41:30Z</time>
      </trkpt>
      <trkpt lat="45.89482" lon="6.18797">
        <ele>1247</ele>
        <time>2013-05-05T12:41:41Z</time>
      </trkpt>
      <trkpt lat="45.89481" lon="6.18796">
        <ele>1247</ele>
        <time>2013-05-05T12:41:42Z</time>
      </trkpt>
      <trkpt lat="45.89478" lon="6.18795">
        <ele>1246</ele>
        <time>2013-05-05T12:41:45Z</time>
      </trkpt>
      <trkpt lat="45.89475" lon="6.18797">
        <ele>1245</ele>
        <time>2013-05-05T12:41:49Z</time>
      </trkpt>
      <trkpt lat="45.8947" lon="6.188">
        <ele>1246</ele>
        <time>2013-05-05T12:42:01Z</time>
      </trkpt>
      <trkpt lat="45.89466" lon="6.18799">
        <ele>1250</ele>
        <time>2013-05-05T12:42:13Z</time>
      </trkpt>
      <trkpt lat="45.89466" lon="6.18799">
        <ele>1250</ele>
        <time>2013-05-05T12:42:14Z</time>
      </trkpt>
      <trkpt lat="45.89461" lon="6.18798">
        <ele>1249</ele>
        <time>2013-05-05T12:42:25Z</time>
      </trkpt>
      <trkpt lat="45.8946" lon="6.18799">
        <ele>1250</ele>
        <time>2013-05-05T12:42:27Z</time>
      </trkpt>
      <trkpt lat="45.8946" lon="6.18799">
        <ele>1250</ele>
        <time>2013-05-05T12:42:28Z</time>
      </trkpt>
      <trkpt lat="45.89452" lon="6.18805">
        <ele>1251</ele>
        <time>2013-05-05T12:42:39Z</time>
      </trkpt>
      <trkpt lat="45.89448" lon="6.18806">
        <ele>1249</ele>
        <time>2013-05-05T12:42:43Z</time>
      </trkpt>
      <trkpt lat="45.8944" lon="6.18809">
        <ele>1250</ele>
        <time>2013-05-05T12:42:53Z</time>
      </trkpt>
      <trkpt lat="45.89433" lon="6.18813">
        <ele>1252</ele>
        <time>2013-05-05T12:43:06Z</time>
      </trkpt>
      <trkpt lat="45.89422" lon="6.18815">
        <ele>1253</ele>
        <time>2013-05-05T12:43:19Z</time>
      </trkpt>
      <trkpt lat="45.89413" lon="6.18821">
        <ele>1251</ele>
        <time>2013-05-05T12:43:31Z</time>
      </trkpt>
      <trkpt lat="45.89408" lon="6.18825">
        <ele>1250</ele>
        <time>2013-05-05T12:43:39Z</time>
      </trkpt>
      <trkpt lat="45.89401" lon="6.1883">
        <ele>1247</ele>
        <time>2013-05-05T12:43:50Z</time>
      </trkpt>
      <trkpt lat="45.89395" lon="6.18833">
        <ele>1246</ele>
        <time>2013-05-05T12:44:01Z</time>
      </trkpt>
      <trkpt lat="45.89391" lon="6.18836">
        <ele>1244</ele>
        <time>2013-05-05T12:44:10Z</time>
      </trkpt>
      <trkpt lat="45.8938" lon="6.1884">
        <ele>1244</ele>
        <time>2013-05-05T12:44:22Z</time>
      </trkpt>
      <trkpt lat="45.89378" lon="6.1884">
        <ele>1243</ele>
        <time>2013-05-05T12:44:25Z</time>
      </trkpt>
      <trkpt lat="45.89372" lon="6.18844">
        <ele>1244</ele>
        <time>2013-05-05T12:44:34Z</time>
      </trkpt>
      <trkpt lat="45.89368" lon="6.1885">
        <ele>1241</ele>
        <time>2013-05-05T12:44:42Z</time>
      </trkpt>
      <trkpt lat="45.89366" lon="6.18855">
        <ele>1241</ele>
        <time>2013-05-05T12:44:48Z</time>
      </trkpt>
      <trkpt lat="45.8935" lon="6.18858">
        <ele>1241</ele>
        <time>2013-05-05T12:45:03Z</time>
      </trkpt>
      <trkpt lat="45.89341" lon="6.18858">
        <ele>1242</ele>
        <time>2013-05-05T12:45:11Z</time>
      </trkpt>
      <trkpt lat="45.89334" lon="6.18863">
        <ele>1239</ele>
        <time>2013-05-05T12:45:18Z</time>
      </trkpt>
      <trkpt lat="45.89327" lon="6.18863">
        <ele>1241</ele>
        <time>2013-05-05T12:45:25Z</time>
      </trkpt>
      <trkpt lat="45.89319" lon="6.18866">
        <ele>1242</ele>
        <time>2013-05-05T12:45:37Z</time>
      </trkpt>
      <trkpt lat="45.89307" lon="6.18873">
        <ele>1238</ele>
        <time>2013-05-05T12:45:50Z</time>
      </trkpt>
      <trkpt lat="45.893" lon="6.1888">
        <ele>1238</ele>
        <time>2013-05-05T12:45:58Z</time>
      </trkpt>
      <trkpt lat="45.89289" lon="6.18884">
        <ele>1239</ele>
        <time>2013-05-05T12:46:11Z</time>
      </trkpt>
      <trkpt lat="45.89281" lon="6.18889">
        <ele>1241</ele>
        <time>2013-05-05T12:46:22Z</time>
      </trkpt>
      <trkpt lat="45.89276" lon="6.1889">
        <ele>1243</ele>
        <time>2013-05-05T12:46:28Z</time>
      </trkpt>
      <trkpt lat="45.89269" lon="6.18894">
        <ele>1243</ele>
        <time>2013-05-05T12:46:39Z</time>
      </trkpt>
      <trkpt lat="45.89268" lon="6.18895">
        <ele>1243</ele>
        <time>2013-05-05T12:46:40Z</time>
      </trkpt>
      <trkpt lat="45.89267" lon="6.18896">
        <ele>1246</ele>
        <time>2013-05-05T12:46:44Z</time>
      </trkpt>
      <trkpt lat="45.8926" lon="6.18892">
        <ele>1246</ele>
        <time>2013-05-05T12:46:59Z</time>
      </trkpt>
      <trkpt lat="45.89258" lon="6.18889">
        <ele>1250</ele>
        <time>2013-05-05T12:47:04Z</time>
      </trkpt>
      <trkpt lat="45.89257" lon="6.18889">
        <ele>1247</ele>
        <time>2013-05-05T12:47:05Z</time>
      </trkpt>
      <trkpt lat="45.89257" lon="6.1889">
        <ele>1250</ele>
        <time>2013-05-05T12:47:06Z</time>
      </trkpt>
      <trkpt lat="45.89248" lon="6.18894">
        <ele>1249</ele>
        <time>2013-05-05T12:47:18Z</time>
      </trkpt>
      <trkpt lat="45.89236" lon="6.18897">
        <ele>1250</ele>
        <time>2013-05-05T12:47:31Z</time>
      </trkpt>
      <trkpt lat="45.89234" lon="6.189">
        <ele>1251</ele>
        <time>2013-05-05T12:47:34Z</time>
      </trkpt>
      <trkpt lat="45.8923" lon="6.1891">
        <ele>1252</ele>
        <time>2013-05-05T12:47:43Z</time>
      </trkpt>
      <trkpt lat="45.89215" lon="6.18916">
        <ele>1252</ele>
        <time>2013-05-05T12:47:59Z</time>
      </trkpt>
      <trkpt lat="45.892" lon="6.18913">
        <ele>1252</ele>
        <time>2013-05-05T12:48:17Z</time>
      </trkpt>
      <trkpt lat="45.89194" lon="6.18909">
        <ele>1252</ele>
        <time>2013-05-05T12:48:25Z</time>
      </trkpt>
      <trkpt lat="45.89194" lon="6.18907">
        <ele>1252</ele>
        <time>2013-05-05T12:49:04Z</time>
      </trkpt>
      <trkpt lat="45.89195" lon="6.18908">
        <ele>1253</ele>
        <time>2013-05-05T12:49:26Z</time>
      </trkpt>
      <trkpt lat="45.89197" lon="6.18917">
        <ele>1253</ele>
        <time>2013-05-05T12:49:41Z</time>
      </trkpt>
      <trkpt lat="45.89201" lon="6.18896">
        <ele>1252</ele>
        <time>2013-05-05T12:51:37Z</time>
      </trkpt>
      <trkpt lat="45.89197" lon="6.18912">
        <ele>1252</ele>
        <time>2013-05-05T12:52:24Z</time>
      </trkpt>
      <trkpt lat="45.89195" lon="6.18917">
        <ele>1252</ele>
        <time>2013-05-05T12:52:50Z</time>
      </trkpt>
      <trkpt lat="45.89196" lon="6.18917">
        <ele>1252</ele>
        <time>2013-05-05T12:53:15Z</time>
      </trkpt>
      <trkpt lat="45.89196" lon="6.18922">
        <ele>1251</ele>
        <time>2013-05-05T12:55:22Z</time>
      </trkpt>
      <trkpt lat="45.89195" lon="6.18925">
        <ele>1251</ele>
        <time>2013-05-05T12:55:39Z</time>
      </trkpt>
      <trkpt lat="45.89196" lon="6.18924">
        <ele>1251</ele>
        <time>2013-05-05T12:56:29Z</time>
      </trkpt>
      <trkpt lat="45.89197" lon="6.18926">
        <ele>1251</ele>
        <time>2013-05-05T12:57:01Z</time>
      </trkpt>
      <trkpt lat="45.89193" lon="6.18925">
        <ele>1252</ele>
        <time>2013-05-05T12:57:26Z</time>
      </trkpt>
      <trkpt lat="45.89186" lon="6.18926">
        <ele>1253</ele>
        <time>2013-05-05T12:57:42Z</time>
      </trkpt>
      <trkpt lat="45.89181" lon="6.18932">
        <ele>1253</ele>
        <time>2013-05-05T12:57:49Z</time>
      </trkpt>
      <trkpt lat="45.89174" lon="6.18933">
        <ele>1253</ele>
        <time>2013-05-05T12:58:02Z</time>
      </trkpt>
      <trkpt lat="45.89166" lon="6.18931">
        <ele>1253</ele>
        <time>2013-05-05T12:58:11Z</time>
      </trkpt>
      <trkpt lat="45.89155" lon="6.18938">
        <ele>1252</ele>
        <time>2013-05-05T12:58:27Z</time>
      </trkpt>
      <trkpt lat="45.89147" lon="6.18943">
        <ele>1249</ele>
        <time>2013-05-05T12:58:38Z</time>
      </trkpt>
      <trkpt lat="45.89143" lon="6.18947">
        <ele>1248</ele>
        <time>2013-05-05T12:58:44Z</time>
      </trkpt>
      <trkpt lat="45.89138" lon="6.18953">
        <ele>1246</ele>
        <time>2013-05-05T12:58:57Z</time>
      </trkpt>
      <trkpt lat="45.89133" lon="6.18959">
        <ele>1244</ele>
        <time>2013-05-05T12:59:09Z</time>
      </trkpt>
      <trkpt lat="45.89126" lon="6.18961">
        <ele>1241</ele>
        <time>2013-05-05T12:59:21Z</time>
      </trkpt>
      <trkpt lat="45.89122" lon="6.18964">
        <ele>1239</ele>
        <time>2013-05-05T12:59:28Z</time>
      </trkpt>
      <trkpt lat="45.89118" lon="6.18965">
        <ele>1237</ele>
        <time>2013-05-05T12:59:33Z</time>
      </trkpt>
      <trkpt lat="45.89115" lon="6.18957">
        <ele>1238</ele>
        <time>2013-05-05T12:59:39Z</time>
      </trkpt>
      <trkpt lat="45.89114" lon="6.18951">
        <ele>1237</ele>
        <time>2013-05-05T12:59:46Z</time>
      </trkpt>
      <trkpt lat="45.89111" lon="6.1895">
        <ele>1236</ele>
        <time>2013-05-05T12:59:50Z</time>
      </trkpt>
      <trkpt lat="45.89104" lon="6.18955">
        <ele>1234</ele>
        <time>2013-05-05T13:00:07Z</time>
      </trkpt>
      <trkpt lat="45.891" lon="6.18961">
        <ele>1234</ele>
        <time>2013-05-05T13:00:26Z</time>
      </trkpt>
      <trkpt lat="45.89098" lon="6.18965">
        <ele>1231</ele>
        <time>2013-05-05T13:00:42Z</time>
      </trkpt>
      <trkpt lat="45.89096" lon="6.18967">
        <ele>1229</ele>
        <time>2013-05-05T13:01:04Z</time>
      </trkpt>
      <trkpt lat="45.89096" lon="6.18969">
        <ele>1228</ele>
        <time>2013-05-05T13:01:20Z</time>
      </trkpt>
      <trkpt lat="45.89092" lon="6.18978">
        <ele>1226</ele>
        <time>2013-05-05T13:01:33Z</time>
      </trkpt>
      <trkpt lat="45.89091" lon="6.18982">
        <ele>1226</ele>
        <time>2013-05-05T13:01:36Z</time>
      </trkpt>
      <trkpt lat="45.89086" lon="6.18992">
        <ele>1221</ele>
        <time>2013-05-05T13:01:49Z</time>
      </trkpt>
      <trkpt lat="45.89083" lon="6.19">
        <ele>1218</ele>
        <time>2013-05-05T13:02:01Z</time>
      </trkpt>
      <trkpt lat="45.89082" lon="6.19001">
        <ele>1218</ele>
        <time>2013-05-05T13:02:14Z</time>
      </trkpt>
      <trkpt lat="45.8908" lon="6.19005">
        <ele>1215</ele>
        <time>2013-05-05T13:02:26Z</time>
      </trkpt>
      <trkpt lat="45.8908" lon="6.19013">
        <ele>1212</ele>
        <time>2013-05-05T13:02:38Z</time>
      </trkpt>
      <trkpt lat="45.89078" lon="6.19013">
        <ele>1214</ele>
        <time>2013-05-05T13:02:43Z</time>
      </trkpt>
      <trkpt lat="45.89077" lon="6.19013">
        <ele>1210</ele>
        <time>2013-05-05T13:02:56Z</time>
      </trkpt>
      <trkpt lat="45.89077" lon="6.19013">
        <ele>1213</ele>
        <time>2013-05-05T13:02:57Z</time>
      </trkpt>
      <trkpt lat="45.89077" lon="6.19013">
        <ele>1213</ele>
        <time>2013-05-05T13:02:58Z</time>
      </trkpt>
      <trkpt lat="45.89076" lon="6.19014">
        <ele>1209</ele>
        <time>2013-05-05T13:03:00Z</time>
      </trkpt>
      <trkpt lat="45.89076" lon="6.19014">
        <ele>1212</ele>
        <time>2013-05-05T13:03:01Z</time>
      </trkpt>
      <trkpt lat="45.89076" lon="6.19014">
        <ele>1206</ele>
        <time>2013-05-05T13:03:04Z</time>
      </trkpt>
      <trkpt lat="45.89076" lon="6.19015">
        <ele>1212</ele>
        <time>2013-05-05T13:03:05Z</time>
      </trkpt>
      <trkpt lat="45.89075" lon="6.19015">
        <ele>1209</ele>
        <time>2013-05-05T13:03:07Z</time>
      </trkpt>
      <trkpt lat="45.89075" lon="6.19015">
        <ele>1209</ele>
        <time>2013-05-05T13:03:08Z</time>
      </trkpt>
      <trkpt lat="45.89073" lon="6.19018">
        <ele>1208</ele>
        <time>2013-05-05T13:03:16Z</time>
      </trkpt>
      <trkpt lat="45.89073" lon="6.19024">
        <ele>1206</ele>
        <time>2013-05-05T13:03:27Z</time>
      </trkpt>
      <trkpt lat="45.89071" lon="6.19028">
        <ele>1203</ele>
        <time>2013-05-05T13:03:38Z</time>
      </trkpt>
      <trkpt lat="45.89065" lon="6.19025">
        <ele>1201</ele>
        <time>2013-05-05T13:03:52Z</time>
      </trkpt>
      <trkpt lat="45.8906" lon="6.19019">
        <ele>1200</ele>
        <time>2013-05-05T13:04:07Z</time>
      </trkpt>
      <trkpt lat="45.89056" lon="6.1903">
        <ele>1197</ele>
        <time>2013-05-05T13:04:19Z</time>
      </trkpt>
      <trkpt lat="45.89056" lon="6.19035">
        <ele>1196</ele>
        <time>2013-05-05T13:04:24Z</time>
      </trkpt>
      <trkpt lat="45.89058" lon="6.19044">
        <ele>1195</ele>
        <time>2013-05-05T13:04:37Z</time>
      </trkpt>
      <trkpt lat="45.89058" lon="6.19044">
        <ele>1194</ele>
        <time>2013-05-05T13:04:40Z</time>
      </trkpt>
      <trkpt lat="45.89059" lon="6.19049">
        <ele>1190</ele>
        <time>2013-05-05T13:04:49Z</time>
      </trkpt>
      <trkpt lat="45.89059" lon="6.19052">
        <ele>1191</ele>
        <time>2013-05-05T13:04:53Z</time>
      </trkpt>
      <trkpt lat="45.8906" lon="6.19057">
        <ele>1190</ele>
        <time>2013-05-05T13:05:05Z</time>
      </trkpt>
      <trkpt lat="45.89065" lon="6.1906">
        <ele>1188</ele>
        <time>2013-05-05T13:05:21Z</time>
      </trkpt>
      <trkpt lat="45.89066" lon="6.19064">
        <ele>1184</ele>
        <time>2013-05-05T13:05:32Z</time>
      </trkpt>
      <trkpt lat="45.89066" lon="6.19064">
        <ele>1188</ele>
        <time>2013-05-05T13:05:33Z</time>
      </trkpt>
      <trkpt lat="45.89067" lon="6.19066">
        <ele>1185</ele>
        <time>2013-05-05T13:05:37Z</time>
      </trkpt>
      <trkpt lat="45.89074" lon="6.19069">
        <ele>1182</ele>
        <time>2013-05-05T13:05:55Z</time>
      </trkpt>
      <trkpt lat="45.89081" lon="6.19073">
        <ele>1179</ele>
        <time>2013-05-05T13:06:09Z</time>
      </trkpt>
      <trkpt lat="45.8909" lon="6.19075">
        <ele>1178</ele>
        <time>2013-05-05T13:06:20Z</time>
      </trkpt>
      <trkpt lat="45.89099" lon="6.19077">
        <ele>1175</ele>
        <time>2013-05-05T13:06:36Z</time>
      </trkpt>
      <trkpt lat="45.89101" lon="6.1908">
        <ele>1174</ele>
        <time>2013-05-05T13:06:41Z</time>
      </trkpt>
      <trkpt lat="45.8911" lon="6.1908">
        <ele>1172</ele>
        <time>2013-05-05T13:06:53Z</time>
      </trkpt>
      <trkpt lat="45.89115" lon="6.19085">
        <ele>1170</ele>
        <time>2013-05-05T13:07:15Z</time>
      </trkpt>
      <trkpt lat="45.89115" lon="6.19085">
        <ele>1166</ele>
        <time>2013-05-05T13:07:24Z</time>
      </trkpt>
      <trkpt lat="45.89107" lon="6.19084">
        <ele>1164</ele>
        <time>2013-05-05T13:07:38Z</time>
      </trkpt>
      <trkpt lat="45.89096" lon="6.19088">
        <ele>1162</ele>
        <time>2013-05-05T13:07:58Z</time>
      </trkpt>
      <trkpt lat="45.89102" lon="6.19102">
        <ele>1160</ele>
        <time>2013-05-05T13:08:16Z</time>
      </trkpt>
      <trkpt lat="45.89098" lon="6.19104">
        <ele>1156</ele>
        <time>2013-05-05T13:08:26Z</time>
      </trkpt>
      <trkpt lat="45.89087" lon="6.19098">
        <ele>1154</ele>
        <time>2013-05-05T13:08:44Z</time>
      </trkpt>
      <trkpt lat="45.89087" lon="6.19125">
        <ele>1151</ele>
        <time>2013-05-05T13:09:02Z</time>
      </trkpt>
      <trkpt lat="45.89089" lon="6.19127">
        <ele>1149</ele>
        <time>2013-05-05T13:09:05Z</time>
      </trkpt>
      <trkpt lat="45.89088" lon="6.19129">
        <ele>1147</ele>
        <time>2013-05-05T13:09:19Z</time>
      </trkpt>
      <trkpt lat="45.89083" lon="6.19128">
        <ele>1147</ele>
        <time>2013-05-05T13:09:30Z</time>
      </trkpt>
      <trkpt lat="45.89074" lon="6.19128">
        <ele>1144</ele>
        <time>2013-05-05T13:09:51Z</time>
      </trkpt>
      <trkpt lat="45.89061" lon="6.19131">
        <ele>1140</ele>
        <time>2013-05-05T13:10:10Z</time>
      </trkpt>
      <trkpt lat="45.89054" lon="6.19146">
        <ele>1137</ele>
        <time>2013-05-05T13:10:23Z</time>
      </trkpt>
      <trkpt lat="45.89054" lon="6.19146">
        <ele>1141</ele>
        <time>2013-05-05T13:10:24Z</time>
      </trkpt>
      <trkpt lat="45.89053" lon="6.1915">
        <ele>1139</ele>
        <time>2013-05-05T13:10:29Z</time>
      </trkpt>
      <trkpt lat="45.89049" lon="6.19158">
        <ele>1137</ele>
        <time>2013-05-05T13:10:40Z</time>
      </trkpt>
      <trkpt lat="45.89049" lon="6.19149">
        <ele>1135</ele>
        <time>2013-05-05T13:10:48Z</time>
      </trkpt>
      <trkpt lat="45.89049" lon="6.19144">
        <ele>1133</ele>
        <time>2013-05-05T13:10:56Z</time>
      </trkpt>
      <trkpt lat="45.89045" lon="6.19131">
        <ele>1131</ele>
        <time>2013-05-05T13:11:11Z</time>
      </trkpt>
      <trkpt lat="45.8903" lon="6.19135">
        <ele>1129</ele>
        <time>2013-05-05T13:11:35Z</time>
      </trkpt>
      <trkpt lat="45.8902" lon="6.19133">
        <ele>1126</ele>
        <time>2013-05-05T13:11:53Z</time>
      </trkpt>
      <trkpt lat="45.8902" lon="6.19133">
        <ele>1126</ele>
        <time>2013-05-05T13:11:57Z</time>
      </trkpt>
      <trkpt lat="45.89012" lon="6.19146">
        <ele>1124</ele>
        <time>2013-05-05T13:12:11Z</time>
      </trkpt>
      <trkpt lat="45.89012" lon="6.19134">
        <ele>1122</ele>
        <time>2013-05-05T13:12:22Z</time>
      </trkpt>
      <trkpt lat="45.89002" lon="6.19137">
        <ele>1120</ele>
        <time>2013-05-05T13:12:34Z</time>
      </trkpt>
      <trkpt lat="45.89002" lon="6.19148">
        <ele>1117</ele>
        <time>2013-05-05T13:12:46Z</time>
      </trkpt>
      <trkpt lat="45.88994" lon="6.19136">
        <ele>1114</ele>
        <time>2013-05-05T13:13:13Z</time>
      </trkpt>
      <trkpt lat="45.88989" lon="6.19126">
        <ele>1110</ele>
        <time>2013-05-05T13:13:28Z</time>
      </trkpt>
      <trkpt lat="45.88986" lon="6.19126">
        <ele>1109</ele>
        <time>2013-05-05T13:13:35Z</time>
      </trkpt>
      <trkpt lat="45.88985" lon="6.19148">
        <ele>1107</ele>
        <time>2013-05-05T13:13:49Z</time>
      </trkpt>
      <trkpt lat="45.88985" lon="6.19139">
        <ele>1103</ele>
        <time>2013-05-05T13:14:04Z</time>
      </trkpt>
      <trkpt lat="45.88983" lon="6.19134">
        <ele>1102</ele>
        <time>2013-05-05T13:14:10Z</time>
      </trkpt>
      <trkpt lat="45.88978" lon="6.1912">
        <ele>1100</ele>
        <time>2013-05-05T13:14:25Z</time>
      </trkpt>
      <trkpt lat="45.88966" lon="6.19121">
        <ele>1097</ele>
        <time>2013-05-05T13:14:38Z</time>
      </trkpt>
      <trkpt lat="45.88958" lon="6.19113">
        <ele>1094</ele>
        <time>2013-05-05T13:14:53Z</time>
      </trkpt>
      <trkpt lat="45.88954" lon="6.19106">
        <ele>1091</ele>
        <time>2013-05-05T13:15:03Z</time>
      </trkpt>
      <trkpt lat="45.8894" lon="6.19094">
        <ele>1089</ele>
        <time>2013-05-05T13:15:23Z</time>
      </trkpt>
      <trkpt lat="45.88938" lon="6.19092">
        <ele>1088</ele>
        <time>2013-05-05T13:15:25Z</time>
      </trkpt>
      <trkpt lat="45.88936" lon="6.19086">
        <ele>1088</ele>
        <time>2013-05-05T13:15:30Z</time>
      </trkpt>
      <trkpt lat="45.88935" lon="6.19085">
        <ele>1088</ele>
        <time>2013-05-05T13:15:31Z</time>
      </trkpt>
      <trkpt lat="45.88921" lon="6.19082">
        <ele>1086</ele>
        <time>2013-05-05T13:15:48Z</time>
      </trkpt>
      <trkpt lat="45.88912" lon="6.19078">
        <ele>1083</ele>
        <time>2013-05-05T13:16:00Z</time>
      </trkpt>
      <trkpt lat="45.88905" lon="6.19067">
        <ele>1081</ele>
        <time>2013-05-05T13:16:15Z</time>
      </trkpt>
      <trkpt lat="45.889" lon="6.19058">
        <ele>1080</ele>
        <time>2013-05-05T13:16:27Z</time>
      </trkpt>
      <trkpt lat="45.88899" lon="6.19058">
        <ele>1079</ele>
        <time>2013-05-05T13:16:29Z</time>
      </trkpt>
      <trkpt lat="45.88898" lon="6.19053">
        <ele>1079</ele>
        <time>2013-05-05T13:16:34Z</time>
      </trkpt>
      <trkpt lat="45.88895" lon="6.19047">
        <ele>1079</ele>
        <time>2013-05-05T13:16:38Z</time>
      </trkpt>
      <trkpt lat="45.88889" lon="6.19032">
        <ele>1077</ele>
        <time>2013-05-05T13:16:51Z</time>
      </trkpt>
      <trkpt lat="45.88882" lon="6.19027">
        <ele>1076</ele>
        <time>2013-05-05T13:17:02Z</time>
      </trkpt>
      <trkpt lat="45.88878" lon="6.19025">
        <ele>1075</ele>
        <time>2013-05-05T13:17:06Z</time>
      </trkpt>
      <trkpt lat="45.88876" lon="6.19023">
        <ele>1075</ele>
        <time>2013-05-05T13:17:10Z</time>
      </trkpt>
      <trkpt lat="45.88869" lon="6.1902">
        <ele>1075</ele>
        <time>2013-05-05T13:17:20Z</time>
      </trkpt>
      <trkpt lat="45.88862" lon="6.19013">
        <ele>1073</ele>
        <time>2013-05-05T13:17:34Z</time>
      </trkpt>
      <trkpt lat="45.88862" lon="6.19013">
        <ele>1073</ele>
        <time>2013-05-05T13:17:35Z</time>
      </trkpt>
      <trkpt lat="45.8886" lon="6.19001">
        <ele>1072</ele>
        <time>2013-05-05T13:17:49Z</time>
      </trkpt>
      <trkpt lat="45.88861" lon="6.18992">
        <ele>1072</ele>
        <time>2013-05-05T13:18:01Z</time>
      </trkpt>
      <trkpt lat="45.88861" lon="6.18992">
        <ele>1070</ele>
        <time>2013-05-05T13:18:04Z</time>
      </trkpt>
      <trkpt lat="45.88859" lon="6.18989">
        <ele>1070</ele>
        <time>2013-05-05T13:18:17Z</time>
      </trkpt>
      <trkpt lat="45.88861" lon="6.18986">
        <ele>1066</ele>
        <time>2013-05-05T13:18:22Z</time>
      </trkpt>
      <trkpt lat="45.88866" lon="6.18979">
        <ele>1065</ele>
        <time>2013-05-05T13:18:33Z</time>
      </trkpt>
      <trkpt lat="45.88856" lon="6.18979">
        <ele>1062</ele>
        <time>2013-05-05T13:18:46Z</time>
      </trkpt>
      <trkpt lat="45.88849" lon="6.18982">
        <ele>1061</ele>
        <time>2013-05-05T13:18:59Z</time>
      </trkpt>
      <trkpt lat="45.88848" lon="6.18982">
        <ele>1060</ele>
        <time>2013-05-05T13:19:01Z</time>
      </trkpt>
      <trkpt lat="45.88839" lon="6.18992">
        <ele>1057</ele>
        <time>2013-05-05T13:19:12Z</time>
      </trkpt>
      <trkpt lat="45.88838" lon="6.18995">
        <ele>1057</ele>
        <time>2013-05-05T13:19:17Z</time>
      </trkpt>
      <trkpt lat="45.8883" lon="6.19002">
        <ele>1054</ele>
        <time>2013-05-05T13:19:30Z</time>
      </trkpt>
      <trkpt lat="45.88826" lon="6.19006">
        <ele>1050</ele>
        <time>2013-05-05T13:19:43Z</time>
      </trkpt>
      <trkpt lat="45.88827" lon="6.18996">
        <ele>1048</ele>
        <time>2013-05-05T13:19:56Z</time>
      </trkpt>
      <trkpt lat="45.88829" lon="6.18981">
        <ele>1046</ele>
        <time>2013-05-05T13:20:09Z</time>
      </trkpt>
      <trkpt lat="45.88833" lon="6.18969">
        <ele>1046</ele>
        <time>2013-05-05T13:20:24Z</time>
      </trkpt>
      <trkpt lat="45.88835" lon="6.18955">
        <ele>1044</ele>
        <time>2013-05-05T13:20:36Z</time>
      </trkpt>
      <trkpt lat="45.88835" lon="6.18945">
        <ele>1042</ele>
        <time>2013-05-05T13:20:51Z</time>
      </trkpt>
      <trkpt lat="45.88834" lon="6.18933">
        <ele>1039</ele>
        <time>2013-05-05T13:21:01Z</time>
      </trkpt>
      <trkpt lat="45.88824" lon="6.18926">
        <ele>1039</ele>
        <time>2013-05-05T13:21:09Z</time>
      </trkpt>
      <trkpt lat="45.88811" lon="6.18934">
        <ele>1036</ele>
        <time>2013-05-05T13:21:21Z</time>
      </trkpt>
      <trkpt lat="45.88797" lon="6.18947">
        <ele>1034</ele>
        <time>2013-05-05T13:21:36Z</time>
      </trkpt>
      <trkpt lat="45.88784" lon="6.18957">
        <ele>1031</ele>
        <time>2013-05-05T13:21:49Z</time>
      </trkpt>
      <trkpt lat="45.88774" lon="6.1896">
        <ele>1029</ele>
        <time>2013-05-05T13:22:05Z</time>
      </trkpt>
      <trkpt lat="45.88768" lon="6.1897">
        <ele>1026</ele>
        <time>2013-05-05T13:22:19Z</time>
      </trkpt>
      <trkpt lat="45.88767" lon="6.18969">
        <ele>1026</ele>
        <time>2013-05-05T13:22:20Z</time>
      </trkpt>
      <trkpt lat="45.88764" lon="6.18978">
        <ele>1024</ele>
        <time>2013-05-05T13:22:32Z</time>
      </trkpt>
      <trkpt lat="45.88765" lon="6.18988">
        <ele>1023</ele>
        <time>2013-05-05T13:22:47Z</time>
      </trkpt>
      <trkpt lat="45.88766" lon="6.19007">
        <ele>1020</ele>
        <time>2013-05-05T13:23:00Z</time>
      </trkpt>
      <trkpt lat="45.88768" lon="6.19023">
        <ele>1018</ele>
        <time>2013-05-05T13:23:13Z</time>
      </trkpt>
      <trkpt lat="45.88769" lon="6.19028">
        <ele>1015</ele>
        <time>2013-05-05T13:23:21Z</time>
      </trkpt>
      <trkpt lat="45.8877" lon="6.19017">
        <ele>1012</ele>
        <time>2013-05-05T13:23:32Z</time>
      </trkpt>
      <trkpt lat="45.88763" lon="6.19023">
        <ele>1011</ele>
        <time>2013-05-05T13:23:40Z</time>
      </trkpt>
      <trkpt lat="45.88761" lon="6.19035">
        <ele>1010</ele>
        <time>2013-05-05T13:23:50Z</time>
      </trkpt>
      <trkpt lat="45.88762" lon="6.19058">
        <ele>1009</ele>
        <time>2013-05-05T13:24:02Z</time>
      </trkpt>
      <trkpt lat="45.88764" lon="6.19061">
        <ele>1008</ele>
        <time>2013-05-05T13:24:04Z</time>
      </trkpt>
      <trkpt lat="45.88766" lon="6.19072">
        <ele>1005</ele>
        <time>2013-05-05T13:24:18Z</time>
      </trkpt>
      <trkpt lat="45.88761" lon="6.1908">
        <ele>1005</ele>
        <time>2013-05-05T13:24:28Z</time>
      </trkpt>
      <trkpt lat="45.88759" lon="6.19098">
        <ele>1002</ele>
        <time>2013-05-05T13:24:44Z</time>
      </trkpt>
      <trkpt lat="45.88759" lon="6.19118">
        <ele>1001</ele>
        <time>2013-05-05T13:24:56Z</time>
      </trkpt>
      <trkpt lat="45.8876" lon="6.19132">
        <ele>999</ele>
        <time>2013-05-05T13:25:09Z</time>
      </trkpt>
      <trkpt lat="45.88762" lon="6.19148">
        <ele>998</ele>
        <time>2013-05-05T13:25:22Z</time>
      </trkpt>
      <trkpt lat="45.88754" lon="6.19157">
        <ele>998</ele>
        <time>2013-05-05T13:25:36Z</time>
      </trkpt>
      <trkpt lat="45.88771" lon="6.19152">
        <ele>998</ele>
        <time>2013-05-05T13:26:08Z</time>
      </trkpt>
      <trkpt lat="45.88765" lon="6.19142">
        <ele>998</ele>
        <time>2013-05-05T13:26:34Z</time>
      </trkpt>
      <trkpt lat="45.88762" lon="6.19152">
        <ele>998</ele>
        <time>2013-05-05T13:26:49Z</time>
      </trkpt>
      <trkpt lat="45.8876" lon="6.19149">
        <ele>999</ele>
        <time>2013-05-05T13:27:07Z</time>
      </trkpt>
      <trkpt lat="45.88759" lon="6.19156">
        <ele>998</ele>
        <time>2013-05-05T13:27:45Z</time>
      </trkpt>
      <trkpt lat="45.88752" lon="6.19159">
        <ele>998</ele>
        <time>2013-05-05T13:29:16Z</time>
      </trkpt>
      <trkpt lat="45.88751" lon="6.19159">
        <ele>997</ele>
        <time>2013-05-05T13:29:17Z</time>
      </trkpt>
      <trkpt lat="45.88748" lon="6.19161">
        <ele>997</ele>
        <time>2013-05-05T13:29:21Z</time>
      </trkpt>
      <trkpt lat="45.88743" lon="6.19157">
        <ele>993</ele>
        <time>2013-05-05T13:29:30Z</time>
      </trkpt>
      <trkpt lat="45.88736" lon="6.19161">
        <ele>992</ele>
        <time>2013-05-05T13:29:36Z</time>
      </trkpt>
      <trkpt lat="45.8873" lon="6.19172">
        <ele>988</ele>
        <time>2013-05-05T13:29:46Z</time>
      </trkpt>
      <trkpt lat="45.88726" lon="6.19174">
        <ele>987</ele>
        <time>2013-05-05T13:29:50Z</time>
      </trkpt>
      <trkpt lat="45.88715" lon="6.19178">
        <ele>984</ele>
        <time>2013-05-05T13:30:00Z</time>
      </trkpt>
      <trkpt lat="45.88705" lon="6.19181">
        <ele>979</ele>
        <time>2013-05-05T13:30:11Z</time>
      </trkpt>
      <trkpt lat="45.88697" lon="6.19189">
        <ele>979</ele>
        <time>2013-05-05T13:30:21Z</time>
      </trkpt>
      <trkpt lat="45.88692" lon="6.19192">
        <ele>976</ele>
        <time>2013-05-05T13:30:28Z</time>
      </trkpt>
      <trkpt lat="45.88689" lon="6.19192">
        <ele>975</ele>
        <time>2013-05-05T13:30:32Z</time>
      </trkpt>
      <trkpt lat="45.88685" lon="6.1919">
        <ele>974</ele>
        <time>2013-05-05T13:30:35Z</time>
      </trkpt>
      <trkpt lat="45.88676" lon="6.19186">
        <ele>973</ele>
        <time>2013-05-05T13:30:45Z</time>
      </trkpt>
      <trkpt lat="45.88672" lon="6.19187">
        <ele>969</ele>
        <time>2013-05-05T13:30:58Z</time>
      </trkpt>
      <trkpt lat="45.88656" lon="6.19184">
        <ele>968</ele>
        <time>2013-05-05T13:31:12Z</time>
      </trkpt>
      <trkpt lat="45.88656" lon="6.19186">
        <ele>965</ele>
        <time>2013-05-05T13:31:28Z</time>
      </trkpt>
      <trkpt lat="45.88667" lon="6.19186">
        <ele>965</ele>
        <time>2013-05-05T13:31:37Z</time>
      </trkpt>
      <trkpt lat="45.88676" lon="6.19171">
        <ele>963</ele>
        <time>2013-05-05T13:31:56Z</time>
      </trkpt>
      <trkpt lat="45.88681" lon="6.19164">
        <ele>961</ele>
        <time>2013-05-05T13:32:09Z</time>
      </trkpt>
      <trkpt lat="45.88682" lon="6.19156">
        <ele>960</ele>
        <time>2013-05-05T13:32:16Z</time>
      </trkpt>
      <trkpt lat="45.88684" lon="6.19154">
        <ele>961</ele>
        <time>2013-05-05T13:32:20Z</time>
      </trkpt>
      <trkpt lat="45.88685" lon="6.1915">
        <ele>960</ele>
        <time>2013-05-05T13:32:23Z</time>
      </trkpt>
      <trkpt lat="45.88695" lon="6.19131">
        <ele>957</ele>
        <time>2013-05-05T13:32:41Z</time>
      </trkpt>
      <trkpt lat="45.88688" lon="6.191">
        <ele>956</ele>
        <time>2013-05-05T13:33:12Z</time>
      </trkpt>
      <trkpt lat="45.88676" lon="6.19085">
        <ele>955</ele>
        <time>2013-05-05T13:33:32Z</time>
      </trkpt>
      <trkpt lat="45.88674" lon="6.19085">
        <ele>954</ele>
        <time>2013-05-05T13:33:34Z</time>
      </trkpt>
      <trkpt lat="45.88667" lon="6.19074">
        <ele>952</ele>
        <time>2013-05-05T13:33:49Z</time>
      </trkpt>
      <trkpt lat="45.88662" lon="6.19069">
        <ele>951</ele>
        <time>2013-05-05T13:34:01Z</time>
      </trkpt>
      <trkpt lat="45.8866" lon="6.19066">
        <ele>950</ele>
        <time>2013-05-05T13:34:09Z</time>
      </trkpt>
      <trkpt lat="45.88659" lon="6.19062">
        <ele>949</ele>
        <time>2013-05-05T13:34:11Z</time>
      </trkpt>
      <trkpt lat="45.88655" lon="6.19047">
        <ele>948</ele>
        <time>2013-05-05T13:34:27Z</time>
      </trkpt>
      <trkpt lat="45.88649" lon="6.1904">
        <ele>946</ele>
        <time>2013-05-05T13:34:41Z</time>
      </trkpt>
      <trkpt lat="45.88643" lon="6.19023">
        <ele>944</ele>
        <time>2013-05-05T13:34:51Z</time>
      </trkpt>
      <trkpt lat="45.88633" lon="6.1903">
        <ele>943</ele>
        <time>2013-05-05T13:35:01Z</time>
      </trkpt>
      <trkpt lat="45.88649" lon="6.19044">
        <ele>940</ele>
        <time>2013-05-05T13:35:24Z</time>
      </trkpt>
      <trkpt lat="45.88654" lon="6.19068">
        <ele>937</ele>
        <time>2013-05-05T13:35:50Z</time>
      </trkpt>
      <trkpt lat="45.88646" lon="6.19086">
        <ele>935</ele>
        <time>2013-05-05T13:36:04Z</time>
      </trkpt>
      <trkpt lat="45.88642" lon="6.19097">
        <ele>934</ele>
        <time>2013-05-05T13:36:14Z</time>
      </trkpt>
      <trkpt lat="45.88637" lon="6.19114">
        <ele>933</ele>
        <time>2013-05-05T13:36:26Z</time>
      </trkpt>
      <trkpt lat="45.88638" lon="6.19116">
        <ele>933</ele>
        <time>2013-05-05T13:36:35Z</time>
      </trkpt>
      <trkpt lat="45.8864" lon="6.19117">
        <ele>930</ele>
        <time>2013-05-05T13:36:42Z</time>
      </trkpt>
      <trkpt lat="45.8864" lon="6.19116">
        <ele>929</ele>
        <time>2013-05-05T13:36:44Z</time>
      </trkpt>
      <trkpt lat="45.88639" lon="6.19115">
        <ele>930</ele>
        <time>2013-05-05T13:36:46Z</time>
      </trkpt>
      <trkpt lat="45.88635" lon="6.19124">
        <ele>927</ele>
        <time>2013-05-05T13:37:01Z</time>
      </trkpt>
      <trkpt lat="45.88625" lon="6.19127">
        <ele>923</ele>
        <time>2013-05-05T13:37:27Z</time>
      </trkpt>
      <trkpt lat="45.88619" lon="6.19114">
        <ele>926</ele>
        <time>2013-05-05T13:37:42Z</time>
      </trkpt>
      <trkpt lat="45.88619" lon="6.19112">
        <ele>925</ele>
        <time>2013-05-05T13:37:43Z</time>
      </trkpt>
      <trkpt lat="45.88619" lon="6.19111">
        <ele>924</ele>
        <time>2013-05-05T13:37:45Z</time>
      </trkpt>
      <trkpt lat="45.88626" lon="6.19119">
        <ele>921</ele>
        <time>2013-05-05T13:37:55Z</time>
      </trkpt>
      <trkpt lat="45.88628" lon="6.19122">
        <ele>923</ele>
        <time>2013-05-05T13:37:58Z</time>
      </trkpt>
      <trkpt lat="45.88628" lon="6.19123">
        <ele>927</ele>
        <time>2013-05-05T13:38:00Z</time>
      </trkpt>
      <trkpt lat="45.88627" lon="6.19123">
        <ele>923</ele>
        <time>2013-05-05T13:38:02Z</time>
      </trkpt>
      <trkpt lat="45.88619" lon="6.19126">
        <ele>922</ele>
        <time>2013-05-05T13:38:18Z</time>
      </trkpt>
      <trkpt lat="45.88606" lon="6.19142">
        <ele>921</ele>
        <time>2013-05-05T13:38:34Z</time>
      </trkpt>
      <trkpt lat="45.88596" lon="6.19137">
        <ele>921</ele>
        <time>2013-05-05T13:38:49Z</time>
      </trkpt>
      <trkpt lat="45.88607" lon="6.19121">
        <ele>917</ele>
        <time>2013-05-05T13:39:13Z</time>
      </trkpt>
      <trkpt lat="45.88617" lon="6.19116">
        <ele>916</ele>
        <time>2013-05-05T13:39:31Z</time>
      </trkpt>
      <trkpt lat="45.88606" lon="6.19121">
        <ele>913</ele>
        <time>2013-05-05T13:39:52Z</time>
      </trkpt>
      <trkpt lat="45.88611" lon="6.1912">
        <ele>912</ele>
        <time>2013-05-05T13:40:02Z</time>
      </trkpt>
      <trkpt lat="45.88602" lon="6.19107">
        <ele>908</ele>
        <time>2013-05-05T13:40:22Z</time>
      </trkpt>
      <trkpt lat="45.88595" lon="6.19102">
        <ele>907</ele>
        <time>2013-05-05T13:40:34Z</time>
      </trkpt>
      <trkpt lat="45.88587" lon="6.19115">
        <ele>904</ele>
        <time>2013-05-05T13:40:49Z</time>
      </trkpt>
      <trkpt lat="45.8858" lon="6.19114">
        <ele>902</ele>
        <time>2013-05-05T13:41:03Z</time>
      </trkpt>
      <trkpt lat="45.88565" lon="6.19128">
        <ele>898</ele>
        <time>2013-05-05T13:41:23Z</time>
      </trkpt>
      <trkpt lat="45.88564" lon="6.1913">
        <ele>898</ele>
        <time>2013-05-05T13:41:25Z</time>
      </trkpt>
      <trkpt lat="45.8855" lon="6.19138">
        <ele>896</ele>
        <time>2013-05-05T13:41:40Z</time>
      </trkpt>
      <trkpt lat="45.88542" lon="6.19135">
        <ele>894</ele>
        <time>2013-05-05T13:41:48Z</time>
      </trkpt>
      <trkpt lat="45.88532" lon="6.19127">
        <ele>893</ele>
        <time>2013-05-05T13:41:59Z</time>
      </trkpt>
      <trkpt lat="45.88527" lon="6.19114">
        <ele>892</ele>
        <time>2013-05-05T13:42:13Z</time>
      </trkpt>
      <trkpt lat="45.8853" lon="6.19116">
        <ele>891</ele>
        <time>2013-05-05T13:42:15Z</time>
      </trkpt>
      <trkpt lat="45.88542" lon="6.19117">
        <ele>889</ele>
        <time>2013-05-05T13:42:25Z</time>
      </trkpt>
      <trkpt lat="45.88542" lon="6.1912">
        <ele>886</ele>
        <time>2013-05-05T13:42:34Z</time>
      </trkpt>
      <trkpt lat="45.88531" lon="6.19122">
        <ele>884</ele>
        <time>2013-05-05T13:42:53Z</time>
      </trkpt>
      <trkpt lat="45.88511" lon="6.19122">
        <ele>880</ele>
        <time>2013-05-05T13:43:15Z</time>
      </trkpt>
      <trkpt lat="45.885" lon="6.19119">
        <ele>878</ele>
        <time>2013-05-05T13:43:27Z</time>
      </trkpt>
      <trkpt lat="45.88485" lon="6.19113">
        <ele>875</ele>
        <time>2013-05-05T13:43:45Z</time>
      </trkpt>
      <trkpt lat="45.88496" lon="6.19111">
        <ele>872</ele>
        <time>2013-05-05T13:44:12Z</time>
      </trkpt>
      <trkpt lat="45.8851" lon="6.19117">
        <ele>869</ele>
        <time>2013-05-05T13:44:22Z</time>
      </trkpt>
      <trkpt lat="45.88499" lon="6.19099">
        <ele>867</ele>
        <time>2013-05-05T13:44:30Z</time>
      </trkpt>
      <trkpt lat="45.88486" lon="6.19083">
        <ele>864</ele>
        <time>2013-05-05T13:44:40Z</time>
      </trkpt>
      <trkpt lat="45.88467" lon="6.19084">
        <ele>861</ele>
        <time>2013-05-05T13:45:10Z</time>
      </trkpt>
      <trkpt lat="45.88453" lon="6.19077">
        <ele>860</ele>
        <time>2013-05-05T13:45:23Z</time>
      </trkpt>
      <trkpt lat="45.88433" lon="6.19069">
        <ele>857</ele>
        <time>2013-05-05T13:45:50Z</time>
      </trkpt>
      <trkpt lat="45.88424" lon="6.19056">
        <ele>856</ele>
        <time>2013-05-05T13:46:00Z</time>
      </trkpt>
      <trkpt lat="45.88409" lon="6.19026">
        <ele>856</ele>
        <time>2013-05-05T13:46:25Z</time>
      </trkpt>
      <trkpt lat="45.88409" lon="6.19025">
        <ele>853</ele>
        <time>2013-05-05T13:46:27Z</time>
      </trkpt>
      <trkpt lat="45.88409" lon="6.19017">
        <ele>850</ele>
        <time>2013-05-05T13:46:51Z</time>
      </trkpt>
      <trkpt lat="45.88422" lon="6.19044">
        <ele>848</ele>
        <time>2013-05-05T13:47:08Z</time>
      </trkpt>
      <trkpt lat="45.8843" lon="6.19036">
        <ele>846</ele>
        <time>2013-05-05T13:47:22Z</time>
      </trkpt>
      <trkpt lat="45.88441" lon="6.19034">
        <ele>842</ele>
        <time>2013-05-05T13:47:35Z</time>
      </trkpt>
      <trkpt lat="45.88445" lon="6.19011">
        <ele>841</ele>
        <time>2013-05-05T13:47:47Z</time>
      </trkpt>
      <trkpt lat="45.88441" lon="6.18981">
        <ele>840</ele>
        <time>2013-05-05T13:48:00Z</time>
      </trkpt>
      <trkpt lat="45.88436" lon="6.18975">
        <ele>839</ele>
        <time>2013-05-05T13:48:13Z</time>
      </trkpt>
      <trkpt lat="45.88454" lon="6.18978">
        <ele>836</ele>
        <time>2013-05-05T13:48:38Z</time>
      </trkpt>
      <trkpt lat="45.8844" lon="6.18955">
        <ele>833</ele>
        <time>2013-05-05T13:49:02Z</time>
      </trkpt>
      <trkpt lat="45.88432" lon="6.1896">
        <ele>830</ele>
        <time>2013-05-05T13:49:30Z</time>
      </trkpt>
      <trkpt lat="45.88431" lon="6.18944">
        <ele>826</ele>
        <time>2013-05-05T13:49:49Z</time>
      </trkpt>
      <trkpt lat="45.8845" lon="6.18947">
        <ele>824</ele>
        <time>2013-05-05T13:50:04Z</time>
      </trkpt>
      <trkpt lat="45.88446" lon="6.1892">
        <ele>822</ele>
        <time>2013-05-05T13:50:26Z</time>
      </trkpt>
      <trkpt lat="45.88456" lon="6.1892">
        <ele>822</ele>
        <time>2013-05-05T13:50:38Z</time>
      </trkpt>
      <trkpt lat="45.88457" lon="6.18917">
        <ele>820</ele>
        <time>2013-05-05T13:50:41Z</time>
      </trkpt>
      <trkpt lat="45.88459" lon="6.18918">
        <ele>820</ele>
        <time>2013-05-05T13:51:00Z</time>
      </trkpt>
      <trkpt lat="45.88455" lon="6.18918">
        <ele>820</ele>
        <time>2013-05-05T13:51:18Z</time>
      </trkpt>
      <trkpt lat="45.88455" lon="6.18903">
        <ele>821</ele>
        <time>2013-05-05T13:51:36Z</time>
      </trkpt>
      <trkpt lat="45.88453" lon="6.18904">
        <ele>821</ele>
        <time>2013-05-05T13:51:45Z</time>
      </trkpt>
      <trkpt lat="45.8846" lon="6.18898">
        <ele>821</ele>
        <time>2013-05-05T13:51:57Z</time>
      </trkpt>
      <trkpt lat="45.88458" lon="6.18919">
        <ele>821</ele>
        <time>2013-05-05T13:52:26Z</time>
      </trkpt>
      <trkpt lat="45.88469" lon="6.18896">
        <ele>817</ele>
        <time>2013-05-05T13:52:53Z</time>
      </trkpt>
      <trkpt lat="45.88474" lon="6.18888">
        <ele>817</ele>
        <time>2013-05-05T13:53:09Z</time>
      </trkpt>
      <trkpt lat="45.88473" lon="6.18872">
        <ele>815</ele>
        <time>2013-05-05T13:53:39Z</time>
      </trkpt>
      <trkpt lat="45.88482" lon="6.1886">
        <ele>814</ele>
        <time>2013-05-05T13:53:50Z</time>
      </trkpt>
      <trkpt lat="45.88485" lon="6.18852">
        <ele>813</ele>
        <time>2013-05-05T13:53:57Z</time>
      </trkpt>
      <trkpt lat="45.88491" lon="6.1884">
        <ele>811</ele>
        <time>2013-05-05T13:54:07Z</time>
      </trkpt>
      <trkpt lat="45.88493" lon="6.18832">
        <ele>811</ele>
        <time>2013-05-05T13:54:15Z</time>
      </trkpt>
      <trkpt lat="45.88495" lon="6.1881">
        <ele>810</ele>
        <time>2013-05-05T13:54:25Z</time>
      </trkpt>
      <trkpt lat="45.88496" lon="6.18784">
        <ele>807</ele>
        <time>2013-05-05T13:54:38Z</time>
      </trkpt>
      <trkpt lat="45.88499" lon="6.1878">
        <ele>807</ele>
        <time>2013-05-05T13:54:47Z</time>
      </trkpt>
      <trkpt lat="45.8851" lon="6.18769">
        <ele>805</ele>
        <time>2013-05-05T13:54:58Z</time>
      </trkpt>
      <trkpt lat="45.88523" lon="6.18756">
        <ele>803</ele>
        <time>2013-05-05T13:55:14Z</time>
      </trkpt>
      <trkpt lat="45.88524" lon="6.18741">
        <ele>800</ele>
        <time>2013-05-05T13:55:26Z</time>
      </trkpt>
      <trkpt lat="45.88536" lon="6.18726">
        <ele>799</ele>
        <time>2013-05-05T13:55:38Z</time>
      </trkpt>
      <trkpt lat="45.88539" lon="6.18707">
        <ele>797</ele>
        <time>2013-05-05T13:55:49Z</time>
      </trkpt>
      <trkpt lat="45.88546" lon="6.18692">
        <ele>794</ele>
        <time>2013-05-05T13:56:02Z</time>
      </trkpt>
      <trkpt lat="45.88556" lon="6.18679">
        <ele>793</ele>
        <time>2013-05-05T13:56:11Z</time>
      </trkpt>
      <trkpt lat="45.88567" lon="6.18667">
        <ele>792</ele>
        <time>2013-05-05T13:56:30Z</time>
      </trkpt>
      <trkpt lat="45.8858" lon="6.18653">
        <ele>790</ele>
        <time>2013-05-05T13:56:44Z</time>
      </trkpt>
      <trkpt lat="45.88593" lon="6.18634">
        <ele>788</ele>
        <time>2013-05-05T13:57:07Z</time>
      </trkpt>
      <trkpt lat="45.88599" lon="6.1862">
        <ele>786</ele>
        <time>2013-05-05T13:57:41Z</time>
      </trkpt>
      <trkpt lat="45.88598" lon="6.18617">
        <ele>786</ele>
        <time>2013-05-05T13:57:42Z</time>
      </trkpt>
      <trkpt lat="45.88599" lon="6.18614">
        <ele>786</ele>
        <time>2013-05-05T13:57:44Z</time>
      </trkpt>
      <trkpt lat="45.88607" lon="6.18609">
        <ele>786</ele>
        <time>2013-05-05T13:57:49Z</time>
      </trkpt>
      <trkpt lat="45.88617" lon="6.18604">
        <ele>785</ele>
        <time>2013-05-05T13:58:02Z</time>
      </trkpt>
      <trkpt lat="45.88635" lon="6.18604">
        <ele>784</ele>
        <time>2013-05-05T13:58:25Z</time>
      </trkpt>
      <trkpt lat="45.88636" lon="6.18606">
        <ele>783</ele>
        <time>2013-05-05T13:58:26Z</time>
      </trkpt>
      <trkpt lat="45.88652" lon="6.18607">
        <ele>783</ele>
        <time>2013-05-05T13:58:40Z</time>
      </trkpt>
      <trkpt lat="45.88664" lon="6.18594">
        <ele>783</ele>
        <time>2013-05-05T13:58:55Z</time>
      </trkpt>
      <trkpt lat="45.88679" lon="6.18584">
        <ele>784</ele>
        <time>2013-05-05T13:59:11Z</time>
      </trkpt>
      <trkpt lat="45.88684" lon="6.18561">
        <ele>785</ele>
        <time>2013-05-05T13:59:30Z</time>
      </trkpt>
      <trkpt lat="45.88695" lon="6.18567">
        <ele>786</ele>
        <time>2013-05-05T13:59:38Z</time>
      </trkpt>
      <trkpt lat="45.88699" lon="6.18567">
        <ele>787</ele>
        <time>2013-05-05T13:59:45Z</time>
      </trkpt>
      <trkpt lat="45.88707" lon="6.18566">
        <ele>790</ele>
        <time>2013-05-05T13:59:58Z</time>
      </trkpt>
      <trkpt lat="45.88712" lon="6.1856">
        <ele>792</ele>
        <time>2013-05-05T14:00:06Z</time>
      </trkpt>
      <trkpt lat="45.88731" lon="6.18578">
        <ele>795</ele>
        <time>2013-05-05T14:00:21Z</time>
      </trkpt>
      <trkpt lat="45.88732" lon="6.18579">
        <ele>795</ele>
        <time>2013-05-05T14:00:22Z</time>
      </trkpt>
      <trkpt lat="45.88743" lon="6.18581">
        <ele>797</ele>
        <time>2013-05-05T14:00:32Z</time>
      </trkpt>
      <trkpt lat="45.88743" lon="6.18582">
        <ele>796</ele>
        <time>2013-05-05T14:00:33Z</time>
      </trkpt>
      <trkpt lat="45.88754" lon="6.1858">
        <ele>798</ele>
        <time>2013-05-05T14:00:46Z</time>
      </trkpt>
      <trkpt lat="45.88761" lon="6.1858">
        <ele>801</ele>
        <time>2013-05-05T14:01:00Z</time>
      </trkpt>
      <trkpt lat="45.88767" lon="6.18572">
        <ele>803</ele>
        <time>2013-05-05T14:01:10Z</time>
      </trkpt>
      <trkpt lat="45.88782" lon="6.18578">
        <ele>807</ele>
        <time>2013-05-05T14:01:30Z</time>
      </trkpt>
      <trkpt lat="45.88783" lon="6.18577">
        <ele>807</ele>
        <time>2013-05-05T14:01:31Z</time>
      </trkpt>
      <trkpt lat="45.88801" lon="6.18576">
        <ele>811</ele>
        <time>2013-05-05T14:01:56Z</time>
      </trkpt>
      <trkpt lat="45.88813" lon="6.1858">
        <ele>812</ele>
        <time>2013-05-05T14:02:12Z</time>
      </trkpt>
      <trkpt lat="45.88829" lon="6.18588">
        <ele>815</ele>
        <time>2013-05-05T14:02:30Z</time>
      </trkpt>
      <trkpt lat="45.88832" lon="6.18589">
        <ele>817</ele>
        <time>2013-05-05T14:02:36Z</time>
      </trkpt>
      <trkpt lat="45.88838" lon="6.18574">
        <ele>819</ele>
        <time>2013-05-05T14:02:48Z</time>
      </trkpt>
      <trkpt lat="45.88835" lon="6.18564">
        <ele>818</ele>
        <time>2013-05-05T14:02:52Z</time>
      </trkpt>
      <trkpt lat="45.88836" lon="6.18552">
        <ele>815</ele>
        <time>2013-05-05T14:03:02Z</time>
      </trkpt>
      <trkpt lat="45.88836" lon="6.18551">
        <ele>815</ele>
        <time>2013-05-05T14:03:03Z</time>
      </trkpt>
      <trkpt lat="45.88845" lon="6.18537">
        <ele>813</ele>
        <time>2013-05-05T14:03:15Z</time>
      </trkpt>
      <trkpt lat="45.8886" lon="6.18526">
        <ele>812</ele>
        <time>2013-05-05T14:03:34Z</time>
      </trkpt>
      <trkpt lat="45.88875" lon="6.18522">
        <ele>811</ele>
        <time>2013-05-05T14:03:47Z</time>
      </trkpt>
      <trkpt lat="45.88897" lon="6.18529">
        <ele>808</ele>
        <time>2013-05-05T14:04:06Z</time>
      </trkpt>
      <trkpt lat="45.88908" lon="6.1853">
        <ele>807</ele>
        <time>2013-05-05T14:04:15Z</time>
      </trkpt>
      <trkpt lat="45.88927" lon="6.18536">
        <ele>805</ele>
        <time>2013-05-05T14:04:35Z</time>
      </trkpt>
      <trkpt lat="45.88948" lon="6.18534">
        <ele>804</ele>
        <time>2013-05-05T14:04:54Z</time>
      </trkpt>
      <trkpt lat="45.88954" lon="6.18524">
        <ele>803</ele>
        <time>2013-05-05T14:05:02Z</time>
      </trkpt>
      <trkpt lat="45.88964" lon="6.18511">
        <ele>801</ele>
        <time>2013-05-05T14:05:13Z</time>
      </trkpt>
      <trkpt lat="45.8897" lon="6.18489">
        <ele>798</ele>
        <time>2013-05-05T14:05:25Z</time>
      </trkpt>
      <trkpt lat="45.88979" lon="6.18464">
        <ele>798</ele>
        <time>2013-05-05T14:05:45Z</time>
      </trkpt>
      <trkpt lat="45.88983" lon="6.18451">
        <ele>796</ele>
        <time>2013-05-05T14:05:57Z</time>
      </trkpt>
      <trkpt lat="45.88992" lon="6.18439">
        <ele>795</ele>
        <time>2013-05-05T14:06:12Z</time>
      </trkpt>
      <trkpt lat="45.89006" lon="6.18429">
        <ele>793</ele>
        <time>2013-05-05T14:06:24Z</time>
      </trkpt>
      <trkpt lat="45.89026" lon="6.18407">
        <ele>791</ele>
        <time>2013-05-05T14:06:51Z</time>
      </trkpt>
      <trkpt lat="45.89037" lon="6.18394">
        <ele>789</ele>
        <time>2013-05-05T14:07:06Z</time>
      </trkpt>
      <trkpt lat="45.89045" lon="6.18376">
        <ele>787</ele>
        <time>2013-05-05T14:07:21Z</time>
      </trkpt>
      <trkpt lat="45.8906" lon="6.18362">
        <ele>786</ele>
        <time>2013-05-05T14:07:40Z</time>
      </trkpt>
      <trkpt lat="45.89076" lon="6.18341">
        <ele>785</ele>
        <time>2013-05-05T14:08:00Z</time>
      </trkpt>
      <trkpt lat="45.89094" lon="6.18328">
        <ele>782</ele>
        <time>2013-05-05T14:08:18Z</time>
      </trkpt>
      <trkpt lat="45.89113" lon="6.18308">
        <ele>781</ele>
        <time>2013-05-05T14:08:42Z</time>
      </trkpt>
      <trkpt lat="45.89126" lon="6.18302">
        <ele>780</ele>
        <time>2013-05-05T14:08:56Z</time>
      </trkpt>
      <trkpt lat="45.8915" lon="6.18298">
        <ele>779</ele>
        <time>2013-05-05T14:09:21Z</time>
      </trkpt>
      <trkpt lat="45.89168" lon="6.18277">
        <ele>777</ele>
        <time>2013-05-05T14:09:46Z</time>
      </trkpt>
      <trkpt lat="45.89168" lon="6.18275">
        <ele>777</ele>
        <time>2013-05-05T14:09:47Z</time>
      </trkpt>
      <trkpt lat="45.89178" lon="6.18261">
        <ele>776</ele>
        <time>2013-05-05T14:10:03Z</time>
      </trkpt>
      <trkpt lat="45.89173" lon="6.18247">
        <ele>776</ele>
        <time>2013-05-05T14:10:15Z</time>
      </trkpt>
      <trkpt lat="45.89184" lon="6.18205">
        <ele>773</ele>
        <time>2013-05-05T14:10:48Z</time>
      </trkpt>
      <trkpt lat="45.89187" lon="6.182">
        <ele>773</ele>
        <time>2013-05-05T14:10:54Z</time>
      </trkpt>
      <trkpt lat="45.89188" lon="6.18179">
        <ele>772</ele>
        <time>2013-05-05T14:11:10Z</time>
      </trkpt>
      <trkpt lat="45.89187" lon="6.18159">
        <ele>771</ele>
        <time>2013-05-05T14:11:24Z</time>
      </trkpt>
      <trkpt lat="45.89194" lon="6.18147">
        <ele>770</ele>
        <time>2013-05-05T14:11:39Z</time>
      </trkpt>
      <trkpt lat="45.89192" lon="6.18133">
        <ele>770</ele>
        <time>2013-05-05T14:11:48Z</time>
      </trkpt>
      <trkpt lat="45.89192" lon="6.18125">
        <ele>768</ele>
        <time>2013-05-05T14:11:52Z</time>
      </trkpt>
      <trkpt lat="45.89197" lon="6.18109">
        <ele>766</ele>
        <time>2013-05-05T14:12:07Z</time>
      </trkpt>
      <trkpt lat="45.89202" lon="6.18101">
        <ele>764</ele>
        <time>2013-05-05T14:12:18Z</time>
      </trkpt>
      <trkpt lat="45.8921" lon="6.1808">
        <ele>761</ele>
        <time>2013-05-05T14:12:33Z</time>
      </trkpt>
      <trkpt lat="45.89211" lon="6.18076">
        <ele>761</ele>
        <time>2013-05-05T14:12:37Z</time>
      </trkpt>
      <trkpt lat="45.89212" lon="6.18071">
        <ele>760</ele>
        <time>2013-05-05T14:12:40Z</time>
      </trkpt>
      <trkpt lat="45.89223" lon="6.18056">
        <ele>759</ele>
        <time>2013-05-05T14:12:58Z</time>
      </trkpt>
      <trkpt lat="45.89234" lon="6.18042">
        <ele>757</ele>
        <time>2013-05-05T14:13:10Z</time>
      </trkpt>
      <trkpt lat="45.89241" lon="6.18027">
        <ele>754</ele>
        <time>2013-05-05T14:13:24Z</time>
      </trkpt>
      <trkpt lat="45.89249" lon="6.18012">
        <ele>753</ele>
        <time>2013-05-05T14:13:37Z</time>
      </trkpt>
      <trkpt lat="45.89262" lon="6.18002">
        <ele>749</ele>
        <time>2013-05-05T14:13:49Z</time>
      </trkpt>
      <trkpt lat="45.89277" lon="6.1799">
        <ele>749</ele>
        <time>2013-05-05T14:14:02Z</time>
      </trkpt>
      <trkpt lat="45.89287" lon="6.17969">
        <ele>747</ele>
        <time>2013-05-05T14:14:19Z</time>
      </trkpt>
      <trkpt lat="45.89292" lon="6.17961">
        <ele>746</ele>
        <time>2013-05-05T14:14:27Z</time>
      </trkpt>
      <trkpt lat="45.89305" lon="6.17952">
        <ele>743</ele>
        <time>2013-05-05T14:14:38Z</time>
      </trkpt>
      <trkpt lat="45.89304" lon="6.17933">
        <ele>741</ele>
        <time>2013-05-05T14:14:51Z</time>
      </trkpt>
      <trkpt lat="45.89315" lon="6.17917">
        <ele>738</ele>
        <time>2013-05-05T14:15:08Z</time>
      </trkpt>
      <trkpt lat="45.89337" lon="6.17896">
        <ele>736</ele>
        <time>2013-05-05T14:15:33Z</time>
      </trkpt>
      <trkpt lat="45.89343" lon="6.17889">
        <ele>735</ele>
        <time>2013-05-05T14:15:42Z</time>
      </trkpt>
      <trkpt lat="45.89359" lon="6.1787">
        <ele>731</ele>
        <time>2013-05-05T14:16:04Z</time>
      </trkpt>
      <trkpt lat="45.89366" lon="6.17854">
        <ele>728</ele>
        <time>2013-05-05T14:16:17Z</time>
      </trkpt>
      <trkpt lat="45.89377" lon="6.17839">
        <ele>726</ele>
        <time>2013-05-05T14:16:33Z</time>
      </trkpt>
      <trkpt lat="45.89384" lon="6.17813">
        <ele>724</ele>
        <time>2013-05-05T14:16:54Z</time>
      </trkpt>
      <trkpt lat="45.89397" lon="6.17804">
        <ele>720</ele>
        <time>2013-05-05T14:17:05Z</time>
      </trkpt>
      <trkpt lat="45.89408" lon="6.17791">
        <ele>716</ele>
        <time>2013-05-05T14:17:22Z</time>
      </trkpt>
      <trkpt lat="45.89423" lon="6.17772">
        <ele>714</ele>
        <time>2013-05-05T14:17:56Z</time>
      </trkpt>
      <trkpt lat="45.89431" lon="6.17773">
        <ele>714</ele>
        <time>2013-05-05T14:18:17Z</time>
      </trkpt>
      <trkpt lat="45.8943" lon="6.17774">
        <ele>713</ele>
        <time>2013-05-05T14:18:20Z</time>
      </trkpt>
      <trkpt lat="45.8944" lon="6.17773">
        <ele>714</ele>
        <time>2013-05-05T14:18:31Z</time>
      </trkpt>
      <trkpt lat="45.8944" lon="6.17777">
        <ele>714</ele>
        <time>2013-05-05T14:18:50Z</time>
      </trkpt>
      <trkpt lat="45.89438" lon="6.17777">
        <ele>713</ele>
        <time>2013-05-05T14:19:01Z</time>
      </trkpt>
      <trkpt lat="45.89432" lon="6.17777">
        <ele>714</ele>
        <time>2013-05-05T14:19:25Z</time>
      </trkpt>
      <trkpt lat="45.89441" lon="6.17782">
        <ele>712</ele>
        <time>2013-05-05T14:19:46Z</time>
      </trkpt>
      <trkpt lat="45.89448" lon="6.1778">
        <ele>712</ele>
        <time>2013-05-05T14:19:52Z</time>
      </trkpt>
      <trkpt lat="45.89458" lon="6.17782">
        <ele>708</ele>
        <time>2013-05-05T14:20:01Z</time>
      </trkpt>
      <trkpt lat="45.89471" lon="6.17774">
        <ele>705</ele>
        <time>2013-05-05T14:20:11Z</time>
      </trkpt>
      <trkpt lat="45.89479" lon="6.17779">
        <ele>704</ele>
        <time>2013-05-05T14:20:21Z</time>
      </trkpt>
      <trkpt lat="45.89494" lon="6.1778">
        <ele>701</ele>
        <time>2013-05-05T14:20:40Z</time>
      </trkpt>
      <trkpt lat="45.89498" lon="6.17773">
        <ele>698</ele>
        <time>2013-05-05T14:20:47Z</time>
      </trkpt>
      <trkpt lat="45.89507" lon="6.17765">
        <ele>698</ele>
        <time>2013-05-05T14:20:56Z</time>
      </trkpt>
      <trkpt lat="45.89509" lon="6.17745">
        <ele>695</ele>
        <time>2013-05-05T14:21:08Z</time>
      </trkpt>
      <trkpt lat="45.89508" lon="6.17733">
        <ele>693</ele>
        <time>2013-05-05T14:21:21Z</time>
      </trkpt>
      <trkpt lat="45.89512" lon="6.17712">
        <ele>691</ele>
        <time>2013-05-05T14:21:32Z</time>
      </trkpt>
      <trkpt lat="45.89512" lon="6.17697">
        <ele>691</ele>
        <time>2013-05-05T14:21:40Z</time>
      </trkpt>
      <trkpt lat="45.8951" lon="6.17691">
        <ele>689</ele>
        <time>2013-05-05T14:21:46Z</time>
      </trkpt>
      <trkpt lat="45.89508" lon="6.17671">
        <ele>687</ele>
        <time>2013-05-05T14:22:03Z</time>
      </trkpt>
      <trkpt lat="45.89504" lon="6.17668">
        <ele>687</ele>
        <time>2013-05-05T14:22:06Z</time>
      </trkpt>
      <trkpt lat="45.89504" lon="6.17652">
        <ele>689</ele>
        <time>2013-05-05T14:22:18Z</time>
      </trkpt>
      <trkpt lat="45.89503" lon="6.17633">
        <ele>690</ele>
        <time>2013-05-05T14:22:29Z</time>
      </trkpt>
      <trkpt lat="45.89491" lon="6.17604">
        <ele>690</ele>
        <time>2013-05-05T14:22:44Z</time>
      </trkpt>
      <trkpt lat="45.89492" lon="6.17594">
        <ele>692</ele>
        <time>2013-05-05T14:22:59Z</time>
      </trkpt>
      <trkpt lat="45.89494" lon="6.17586">
        <ele>693</ele>
        <time>2013-05-05T14:23:05Z</time>
      </trkpt>
      <trkpt lat="45.89505" lon="6.17574">
        <ele>694</ele>
        <time>2013-05-05T14:23:23Z</time>
      </trkpt>
      <trkpt lat="45.89527" lon="6.17558">
        <ele>697</ele>
        <time>2013-05-05T14:23:46Z</time>
      </trkpt>
      <trkpt lat="45.89533" lon="6.17565">
        <ele>698</ele>
        <time>2013-05-05T14:23:56Z</time>
      </trkpt>
      <trkpt lat="45.89542" lon="6.17568">
        <ele>700</ele>
        <time>2013-05-05T14:24:08Z</time>
      </trkpt>
      <trkpt lat="45.89552" lon="6.17564">
        <ele>703</ele>
        <time>2013-05-05T14:24:17Z</time>
      </trkpt>
      <trkpt lat="45.89569" lon="6.17566">
        <ele>704</ele>
        <time>2013-05-05T14:24:32Z</time>
      </trkpt>
      <trkpt lat="45.89587" lon="6.1756">
        <ele>707</ele>
        <time>2013-05-05T14:24:56Z</time>
      </trkpt>
      <trkpt lat="45.89607" lon="6.17549">
        <ele>709</ele>
        <time>2013-05-05T14:25:19Z</time>
      </trkpt>
      <trkpt lat="45.89612" lon="6.17544">
        <ele>712</ele>
        <time>2013-05-05T14:25:28Z</time>
      </trkpt>
      <trkpt lat="45.89616" lon="6.17541">
        <ele>712</ele>
        <time>2013-05-05T14:25:34Z</time>
      </trkpt>
      <trkpt lat="45.89619" lon="6.17543">
        <ele>716</ele>
        <time>2013-05-05T14:25:49Z</time>
      </trkpt>
      <trkpt lat="45.89638" lon="6.17548">
        <ele>716</ele>
        <time>2013-05-05T14:25:59Z</time>
      </trkpt>
      <trkpt lat="45.89649" lon="6.17545">
        <ele>717</ele>
        <time>2013-05-05T14:26:10Z</time>
      </trkpt>
      <trkpt lat="45.89656" lon="6.17515">
        <ele>717</ele>
        <time>2013-05-05T14:26:20Z</time>
      </trkpt>
      <trkpt lat="45.89649" lon="6.17496">
        <ele>717</ele>
        <time>2013-05-05T14:26:33Z</time>
      </trkpt>
      <trkpt lat="45.89636" lon="6.17483">
        <ele>718</ele>
        <time>2013-05-05T14:26:46Z</time>
      </trkpt>
      <trkpt lat="45.8963" lon="6.17482">
        <ele>718</ele>
        <time>2013-05-05T14:26:51Z</time>
      </trkpt>
      <trkpt lat="45.89621" lon="6.17477">
        <ele>717</ele>
        <time>2013-05-05T14:27:01Z</time>
      </trkpt>
      <trkpt lat="45.89613" lon="6.17473">
        <ele>716</ele>
        <time>2013-05-05T14:27:09Z</time>
      </trkpt>
      <trkpt lat="45.89608" lon="6.17476">
        <ele>715</ele>
        <time>2013-05-05T14:27:12Z</time>
      </trkpt>
      <trkpt lat="45.89596" lon="6.17472">
        <ele>714</ele>
        <time>2013-05-05T14:27:26Z</time>
      </trkpt>
      <trkpt lat="45.89588" lon="6.17468">
        <ele>715</ele>
        <time>2013-05-05T14:27:37Z</time>
      </trkpt>
      <trkpt lat="45.89581" lon="6.17455">
        <ele>715</ele>
        <time>2013-05-05T14:27:50Z</time>
      </trkpt>
      <trkpt lat="45.89581" lon="6.17442">
        <ele>717</ele>
        <time>2013-05-05T14:28:00Z</time>
      </trkpt>
      <trkpt lat="45.89578" lon="6.17425">
        <ele>717</ele>
        <time>2013-05-05T14:28:11Z</time>
      </trkpt>
      <trkpt lat="45.89579" lon="6.1741">
        <ele>717</ele>
        <time>2013-05-05T14:28:20Z</time>
      </trkpt>
      <trkpt lat="45.8958" lon="6.174">
        <ele>718</ele>
        <time>2013-05-05T14:28:27Z</time>
      </trkpt>
      <trkpt lat="45.89578" lon="6.1739">
        <ele>717</ele>
        <time>2013-05-05T14:28:33Z</time>
      </trkpt>
      <trkpt lat="45.89565" lon="6.17367">
        <ele>717</ele>
        <time>2013-05-05T14:28:45Z</time>
      </trkpt>
      <trkpt lat="45.89567" lon="6.17352">
        <ele>716</ele>
        <time>2013-05-05T14:28:56Z</time>
      </trkpt>
      <trkpt lat="45.89569" lon="6.17332">
        <ele>717</ele>
        <time>2013-05-05T14:29:12Z</time>
      </trkpt>
      <trkpt lat="45.89569" lon="6.17325">
        <ele>717</ele>
        <time>2013-05-05T14:29:17Z</time>
      </trkpt>
      <trkpt lat="45.8957" lon="6.17311">
        <ele>720</ele>
        <time>2013-05-05T14:29:28Z</time>
      </trkpt>
      <trkpt lat="45.89571" lon="6.17311">
        <ele>721</ele>
        <time>2013-05-05T14:29:29Z</time>
      </trkpt>
      <trkpt lat="45.89572" lon="6.17296">
        <ele>721</ele>
        <time>2013-05-05T14:29:39Z</time>
      </trkpt>
      <trkpt lat="45.89575" lon="6.17275">
        <ele>723</ele>
        <time>2013-05-05T14:29:53Z</time>
      </trkpt>
      <trkpt lat="45.89575" lon="6.17274">
        <ele>723</ele>
        <time>2013-05-05T14:29:54Z</time>
      </trkpt>
      <trkpt lat="45.89577" lon="6.1725">
        <ele>725</ele>
        <time>2013-05-05T14:30:11Z</time>
      </trkpt>
      <trkpt lat="45.8958" lon="6.17232">
        <ele>724</ele>
        <time>2013-05-05T14:30:23Z</time>
      </trkpt>
      <trkpt lat="45.89589" lon="6.17219">
        <ele>723</ele>
        <time>2013-05-05T14:30:34Z</time>
      </trkpt>
      <trkpt lat="45.89596" lon="6.17205">
        <ele>723</ele>
        <time>2013-05-05T14:30:46Z</time>
      </trkpt>
      <trkpt lat="45.89615" lon="6.17183">
        <ele>722</ele>
        <time>2013-05-05T14:31:04Z</time>
      </trkpt>
      <trkpt lat="45.89621" lon="6.17181">
        <ele>723</ele>
        <time>2013-05-05T14:31:13Z</time>
      </trkpt>
      <trkpt lat="45.89633" lon="6.17168">
        <ele>725</ele>
        <time>2013-05-05T14:31:29Z</time>
      </trkpt>
      <trkpt lat="45.8965" lon="6.17142">
        <ele>726</ele>
        <time>2013-05-05T14:31:53Z</time>
      </trkpt>
      <trkpt lat="45.89663" lon="6.17128">
        <ele>727</ele>
        <time>2013-05-05T14:32:07Z</time>
      </trkpt>
      <trkpt lat="45.89672" lon="6.17114">
        <ele>726</ele>
        <time>2013-05-05T14:32:19Z</time>
      </trkpt>
      <trkpt lat="45.89685" lon="6.17102">
        <ele>726</ele>
        <time>2013-05-05T14:32:35Z</time>
      </trkpt>
      <trkpt lat="45.89708" lon="6.17078">
        <ele>726</ele>
        <time>2013-05-05T14:32:59Z</time>
      </trkpt>
      <trkpt lat="45.89723" lon="6.17068">
        <ele>724</ele>
        <time>2013-05-05T14:33:12Z</time>
      </trkpt>
      <trkpt lat="45.89738" lon="6.17065">
        <ele>727</ele>
        <time>2013-05-05T14:33:28Z</time>
      </trkpt>
      <trkpt lat="45.89753" lon="6.17052">
        <ele>724</ele>
        <time>2013-05-05T14:33:46Z</time>
      </trkpt>
      <trkpt lat="45.89772" lon="6.17037">
        <ele>721</ele>
        <time>2013-05-05T14:34:07Z</time>
      </trkpt>
      <trkpt lat="45.89777" lon="6.17037">
        <ele>718</ele>
        <time>2013-05-05T14:34:12Z</time>
      </trkpt>
      <trkpt lat="45.89795" lon="6.17037">
        <ele>716</ele>
        <time>2013-05-05T14:34:25Z</time>
      </trkpt>
      <trkpt lat="45.898" lon="6.17041">
        <ele>715</ele>
        <time>2013-05-05T14:34:29Z</time>
      </trkpt>
      <trkpt lat="45.89813" lon="6.17041">
        <ele>714</ele>
        <time>2013-05-05T14:34:38Z</time>
      </trkpt>
      <trkpt lat="45.89818" lon="6.1703">
        <ele>714</ele>
        <time>2013-05-05T14:34:47Z</time>
      </trkpt>
      <trkpt lat="45.89819" lon="6.17019">
        <ele>712</ele>
        <time>2013-05-05T14:34:56Z</time>
      </trkpt>
      <trkpt lat="45.89821" lon="6.16997">
        <ele>709</ele>
        <time>2013-05-05T14:35:11Z</time>
      </trkpt>
      <trkpt lat="45.89826" lon="6.16988">
        <ele>706</ele>
        <time>2013-05-05T14:35:20Z</time>
      </trkpt>
      <trkpt lat="45.89835" lon="6.16979">
        <ele>702</ele>
        <time>2013-05-05T14:35:32Z</time>
      </trkpt>
      <trkpt lat="45.89844" lon="6.16963">
        <ele>700</ele>
        <time>2013-05-05T14:35:49Z</time>
      </trkpt>
      <trkpt lat="45.89842" lon="6.16945">
        <ele>697</ele>
        <time>2013-05-05T14:36:00Z</time>
      </trkpt>
      <trkpt lat="45.89839" lon="6.16942">
        <ele>695</ele>
        <time>2013-05-05T14:36:03Z</time>
      </trkpt>
      <trkpt lat="45.89827" lon="6.16923">
        <ele>691</ele>
        <time>2013-05-05T14:36:19Z</time>
      </trkpt>
      <trkpt lat="45.89829" lon="6.16908">
        <ele>691</ele>
        <time>2013-05-05T14:36:28Z</time>
      </trkpt>
      <trkpt lat="45.89832" lon="6.16893">
        <ele>689</ele>
        <time>2013-05-05T14:36:39Z</time>
      </trkpt>
      <trkpt lat="45.8983" lon="6.16877">
        <ele>689</ele>
        <time>2013-05-05T14:36:48Z</time>
      </trkpt>
      <trkpt lat="45.8983" lon="6.16865">
        <ele>688</ele>
        <time>2013-05-05T14:36:56Z</time>
      </trkpt>
      <trkpt lat="45.89828" lon="6.16847">
        <ele>687</ele>
        <time>2013-05-05T14:37:10Z</time>
      </trkpt>
      <trkpt lat="45.89839" lon="6.16821">
        <ele>685</ele>
        <time>2013-05-05T14:37:30Z</time>
      </trkpt>
      <trkpt lat="45.89846" lon="6.16811">
        <ele>683</ele>
        <time>2013-05-05T14:37:42Z</time>
      </trkpt>
      <trkpt lat="45.89858" lon="6.16802">
        <ele>682</ele>
        <time>2013-05-05T14:37:54Z</time>
      </trkpt>
      <trkpt lat="45.8987" lon="6.16799">
        <ele>680</ele>
        <time>2013-05-05T14:38:03Z</time>
      </trkpt>
      <trkpt lat="45.89886" lon="6.16788">
        <ele>677</ele>
        <time>2013-05-05T14:38:17Z</time>
      </trkpt>
      <trkpt lat="45.89892" lon="6.16777">
        <ele>674</ele>
        <time>2013-05-05T14:38:29Z</time>
      </trkpt>
      <trkpt lat="45.89893" lon="6.16776">
        <ele>674</ele>
        <time>2013-05-05T14:38:30Z</time>
      </trkpt>
      <trkpt lat="45.89898" lon="6.16761">
        <ele>671</ele>
        <time>2013-05-05T14:38:42Z</time>
      </trkpt>
      <trkpt lat="45.89905" lon="6.16745">
        <ele>669</ele>
        <time>2013-05-05T14:38:53Z</time>
      </trkpt>
      <trkpt lat="45.89915" lon="6.16727">
        <ele>667</ele>
        <time>2013-05-05T14:39:10Z</time>
      </trkpt>
      <trkpt lat="45.89922" lon="6.16702">
        <ele>665</ele>
        <time>2013-05-05T14:39:26Z</time>
      </trkpt>
      <trkpt lat="45.89931" lon="6.16685">
        <ele>662</ele>
        <time>2013-05-05T14:39:38Z</time>
      </trkpt>
      <trkpt lat="45.89941" lon="6.16677">
        <ele>662</ele>
        <time>2013-05-05T14:39:50Z</time>
      </trkpt>
      <trkpt lat="45.89945" lon="6.16666">
        <ele>662</ele>
        <time>2013-05-05T14:39:57Z</time>
      </trkpt>
      <trkpt lat="45.8995" lon="6.16649">
        <ele>664</ele>
        <time>2013-05-05T14:40:10Z</time>
      </trkpt>
      <trkpt lat="45.89947" lon="6.16633">
        <ele>663</ele>
        <time>2013-05-05T14:40:20Z</time>
      </trkpt>
      <trkpt lat="45.8995" lon="6.16619">
        <ele>662</ele>
        <time>2013-05-05T14:40:38Z</time>
      </trkpt>
      <trkpt lat="45.8995" lon="6.16616">
        <ele>663</ele>
        <time>2013-05-05T14:40:41Z</time>
      </trkpt>
      <trkpt lat="45.89951" lon="6.16615">
        <ele>662</ele>
        <time>2013-05-05T14:40:43Z</time>
      </trkpt>
      <trkpt lat="45.89954" lon="6.16608">
        <ele>663</ele>
        <time>2013-05-05T14:40:58Z</time>
      </trkpt>
      <trkpt lat="45.89956" lon="6.16608">
        <ele>662</ele>
        <time>2013-05-05T14:41:04Z</time>
      </trkpt>
      <trkpt lat="45.89957" lon="6.16605">
        <ele>664</ele>
        <time>2013-05-05T14:41:09Z</time>
      </trkpt>
      <trkpt lat="45.89958" lon="6.16597">
        <ele>664</ele>
        <time>2013-05-05T14:41:14Z</time>
      </trkpt>
      <trkpt lat="45.89957" lon="6.16578">
        <ele>664</ele>
        <time>2013-05-05T14:41:28Z</time>
      </trkpt>
      <trkpt lat="45.89956" lon="6.16566">
        <ele>667</ele>
        <time>2013-05-05T14:41:42Z</time>
      </trkpt>
      <trkpt lat="45.89947" lon="6.16556">
        <ele>668</ele>
        <time>2013-05-05T14:42:04Z</time>
      </trkpt>
      <trkpt lat="45.89948" lon="6.16558">
        <ele>671</ele>
        <time>2013-05-05T14:42:25Z</time>
      </trkpt>
      <trkpt lat="45.89948" lon="6.16543">
        <ele>672</ele>
        <time>2013-05-05T14:42:37Z</time>
      </trkpt>
      <trkpt lat="45.89941" lon="6.16535">
        <ele>673</ele>
        <time>2013-05-05T14:43:05Z</time>
      </trkpt>
      <trkpt lat="45.89946" lon="6.16536">
        <ele>676</ele>
        <time>2013-05-05T14:43:17Z</time>
      </trkpt>
      <trkpt lat="45.89954" lon="6.16531">
        <ele>679</ele>
        <time>2013-05-05T14:43:30Z</time>
      </trkpt>
      <trkpt lat="45.89958" lon="6.16528">
        <ele>679</ele>
        <time>2013-05-05T14:44:05Z</time>
      </trkpt>
      <trkpt lat="45.89958" lon="6.16528">
        <ele>675</ele>
        <time>2013-05-05T14:44:06Z</time>
      </trkpt>
      <trkpt lat="45.89959" lon="6.16528">
        <ele>680</ele>
        <time>2013-05-05T14:44:07Z</time>
      </trkpt>
      <trkpt lat="45.89959" lon="6.16528">
        <ele>677</ele>
        <time>2013-05-05T14:44:08Z</time>
      </trkpt>
      <trkpt lat="45.89959" lon="6.16528">
        <ele>680</ele>
        <time>2013-05-05T14:44:09Z</time>
      </trkpt>
      <trkpt lat="45.89959" lon="6.16528">
        <ele>677</ele>
        <time>2013-05-05T14:44:14Z</time>
      </trkpt>
      <trkpt lat="45.89959" lon="6.16528">
        <ele>677</ele>
        <time>2013-05-05T14:44:20Z</time>
      </trkpt>
      <trkpt lat="45.89961" lon="6.16533">
        <ele>677</ele>
        <time>2013-05-05T14:44:48Z</time>
      </trkpt>
      <trkpt lat="45.89964" lon="6.16529">
        <ele>676</ele>
        <time>2013-05-05T14:45:38Z</time>
      </trkpt>
      <trkpt lat="45.89966" lon="6.1653">
        <ele>676</ele>
        <time>2013-05-05T14:45:57Z</time>
      </trkpt>
      <trkpt lat="45.89966" lon="6.16529">
        <ele>676</ele>
        <time>2013-05-05T14:46:28Z</time>
      </trkpt>
      <trkpt lat="45.8997" lon="6.16522">
        <ele>676</ele>
        <time>2013-05-05T14:46:44Z</time>
      </trkpt>
      <trkpt lat="45.89979" lon="6.16517">
        <ele>673</ele>
        <time>2013-05-05T14:46:55Z</time>
      </trkpt>
      <trkpt lat="45.89983" lon="6.16517">
        <ele>673</ele>
        <time>2013-05-05T14:46:59Z</time>
      </trkpt>
      <trkpt lat="45.89996" lon="6.16511">
        <ele>670</ele>
        <time>2013-05-05T14:47:12Z</time>
      </trkpt>
      <trkpt lat="45.90005" lon="6.16504">
        <ele>668</ele>
        <time>2013-05-05T14:47:23Z</time>
      </trkpt>
      <trkpt lat="45.90006" lon="6.16504">
        <ele>666</ele>
        <time>2013-05-05T14:47:25Z</time>
      </trkpt>
      <trkpt lat="45.90014" lon="6.16496">
        <ele>663</ele>
        <time>2013-05-05T14:47:37Z</time>
      </trkpt>
      <trkpt lat="45.90027" lon="6.1649">
        <ele>662</ele>
        <time>2013-05-05T14:47:49Z</time>
      </trkpt>
      <trkpt lat="45.9003" lon="6.16487">
        <ele>661</ele>
        <time>2013-05-05T14:47:53Z</time>
      </trkpt>
      <trkpt lat="45.90035" lon="6.16476">
        <ele>659</ele>
        <time>2013-05-05T14:48:04Z</time>
      </trkpt>
      <trkpt lat="45.90038" lon="6.16473">
        <ele>657</ele>
        <time>2013-05-05T14:48:07Z</time>
      </trkpt>
      <trkpt lat="45.9005" lon="6.16469">
        <ele>654</ele>
        <time>2013-05-05T14:48:22Z</time>
      </trkpt>
      <trkpt lat="45.90064" lon="6.16472">
        <ele>655</ele>
        <time>2013-05-05T14:48:35Z</time>
      </trkpt>
      <trkpt lat="45.9008" lon="6.16474">
        <ele>656</ele>
        <time>2013-05-05T14:48:48Z</time>
      </trkpt>
      <trkpt lat="45.90092" lon="6.16472">
        <ele>654</ele>
        <time>2013-05-05T14:49:00Z</time>
      </trkpt>
      <trkpt lat="45.9011" lon="6.16478">
        <ele>654</ele>
        <time>2013-05-05T14:49:14Z</time>
      </trkpt>
      <trkpt lat="45.90125" lon="6.16479">
        <ele>655</ele>
        <time>2013-05-05T14:49:27Z</time>
      </trkpt>
      <trkpt lat="45.90136" lon="6.16481">
        <ele>654</ele>
        <time>2013-05-05T14:49:37Z</time>
      </trkpt>
      <trkpt lat="45.90149" lon="6.1648">
        <ele>653</ele>
        <time>2013-05-05T14:49:47Z</time>
      </trkpt>
      <trkpt lat="45.90153" lon="6.1648">
        <ele>653</ele>
        <time>2013-05-05T14:49:49Z</time>
      </trkpt>
      <trkpt lat="45.90165" lon="6.16482">
        <ele>653</ele>
        <time>2013-05-05T14:50:00Z</time>
      </trkpt>
      <trkpt lat="45.90181" lon="6.16486">
        <ele>651</ele>
        <time>2013-05-05T14:50:12Z</time>
      </trkpt>
      <trkpt lat="45.90191" lon="6.16488">
        <ele>651</ele>
        <time>2013-05-05T14:50:22Z</time>
      </trkpt>
      <trkpt lat="45.90206" lon="6.16488">
        <ele>651</ele>
        <time>2013-05-05T14:50:33Z</time>
      </trkpt>
      <trkpt lat="45.9022" lon="6.16489">
        <ele>651</ele>
        <time>2013-05-05T14:50:45Z</time>
      </trkpt>
      <trkpt lat="45.90238" lon="6.16498">
        <ele>651</ele>
        <time>2013-05-05T14:51:01Z</time>
      </trkpt>
      <trkpt lat="45.90256" lon="6.16505">
        <ele>650</ele>
        <time>2013-05-05T14:51:15Z</time>
      </trkpt>
      <trkpt lat="45.90269" lon="6.16509">
        <ele>652</ele>
        <time>2013-05-05T14:51:26Z</time>
      </trkpt>
      <trkpt lat="45.90276" lon="6.1651">
        <ele>651</ele>
        <time>2013-05-05T14:51:32Z</time>
      </trkpt>
      <trkpt lat="45.90288" lon="6.16514">
        <ele>652</ele>
        <time>2013-05-05T14:51:44Z</time>
      </trkpt>
      <trkpt lat="45.90299" lon="6.16514">
        <ele>651</ele>
        <time>2013-05-05T14:51:54Z</time>
      </trkpt>
      <trkpt lat="45.90316" lon="6.16521">
        <ele>650</ele>
        <time>2013-05-05T14:52:07Z</time>
      </trkpt>
      <trkpt lat="45.90329" lon="6.16524">
        <ele>650</ele>
        <time>2013-05-05T14:52:17Z</time>
      </trkpt>
      <trkpt lat="45.90345" lon="6.16532">
        <ele>650</ele>
        <time>2013-05-05T14:52:31Z</time>
      </trkpt>
      <trkpt lat="45.90361" lon="6.16536">
        <ele>650</ele>
        <time>2013-05-05T14:52:43Z</time>
      </trkpt>
      <trkpt lat="45.90373" lon="6.16538">
        <ele>648</ele>
        <time>2013-05-05T14:52:53Z</time>
      </trkpt>
      <trkpt lat="45.90382" lon="6.16536">
        <ele>646</ele>
        <time>2013-05-05T14:53:03Z</time>
      </trkpt>
      <trkpt lat="45.90387" lon="6.16536">
        <ele>644</ele>
        <time>2013-05-05T14:53:07Z</time>
      </trkpt>
      <trkpt lat="45.90399" lon="6.16534">
        <ele>643</ele>
        <time>2013-05-05T14:53:18Z</time>
      </trkpt>
      <trkpt lat="45.90411" lon="6.16539">
        <ele>642</ele>
        <time>2013-05-05T14:53:30Z</time>
      </trkpt>
      <trkpt lat="45.90428" lon="6.16542">
        <ele>641</ele>
        <time>2013-05-05T14:53:44Z</time>
      </trkpt>
      <trkpt lat="45.90442" lon="6.16547">
        <ele>639</ele>
        <time>2013-05-05T14:53:59Z</time>
      </trkpt>
      <trkpt lat="45.90454" lon="6.16551">
        <ele>641</ele>
        <time>2013-05-05T14:54:09Z</time>
      </trkpt>
      <trkpt lat="45.90466" lon="6.16555">
        <ele>643</ele>
        <time>2013-05-05T14:54:23Z</time>
      </trkpt>
      <trkpt lat="45.90477" lon="6.16553">
        <ele>642</ele>
        <time>2013-05-05T14:54:33Z</time>
      </trkpt>
      <trkpt lat="45.90489" lon="6.16556">
        <ele>641</ele>
        <time>2013-05-05T14:54:44Z</time>
      </trkpt>
      <trkpt lat="45.90497" lon="6.1656">
        <ele>639</ele>
        <time>2013-05-05T14:54:56Z</time>
      </trkpt>
      <trkpt lat="45.90501" lon="6.16562">
        <ele>637</ele>
        <time>2013-05-05T14:55:01Z</time>
      </trkpt>
      <trkpt lat="45.90512" lon="6.16559">
        <ele>634</ele>
        <time>2013-05-05T14:55:10Z</time>
      </trkpt>
      <trkpt lat="45.90518" lon="6.16559">
        <ele>631</ele>
        <time>2013-05-05T14:55:20Z</time>
      </trkpt>
      <trkpt lat="45.90527" lon="6.16556">
        <ele>627</ele>
        <time>2013-05-05T14:55:38Z</time>
      </trkpt>
      <trkpt lat="45.90527" lon="6.16555">
        <ele>627</ele>
        <time>2013-05-05T14:55:39Z</time>
      </trkpt>
      <trkpt lat="45.90537" lon="6.16552">
        <ele>625</ele>
        <time>2013-05-05T14:55:56Z</time>
      </trkpt>
      <trkpt lat="45.90547" lon="6.16555">
        <ele>621</ele>
        <time>2013-05-05T14:56:07Z</time>
      </trkpt>
      <trkpt lat="45.90557" lon="6.16552">
        <ele>619</ele>
        <time>2013-05-05T14:56:19Z</time>
      </trkpt>
      <trkpt lat="45.90559" lon="6.16548">
        <ele>618</ele>
        <time>2013-05-05T14:56:23Z</time>
      </trkpt>
      <trkpt lat="45.9055" lon="6.16543">
        <ele>615</ele>
        <time>2013-05-05T14:56:35Z</time>
      </trkpt>
      <trkpt lat="45.90547" lon="6.16532">
        <ele>612</ele>
        <time>2013-05-05T14:56:59Z</time>
      </trkpt>
      <trkpt lat="45.90552" lon="6.16531">
        <ele>610</ele>
        <time>2013-05-05T14:57:13Z</time>
      </trkpt>
      <trkpt lat="45.90558" lon="6.16532">
        <ele>608</ele>
        <time>2013-05-05T14:57:29Z</time>
      </trkpt>
      <trkpt lat="45.90551" lon="6.16523">
        <ele>605</ele>
        <time>2013-05-05T14:57:45Z</time>
      </trkpt>
      <trkpt lat="45.90551" lon="6.16522">
        <ele>605</ele>
        <time>2013-05-05T14:57:49Z</time>
      </trkpt>
      <trkpt lat="45.90558" lon="6.16524">
        <ele>602</ele>
        <time>2013-05-05T14:57:59Z</time>
      </trkpt>
      <trkpt lat="45.90553" lon="6.16517">
        <ele>601</ele>
        <time>2013-05-05T14:58:09Z</time>
      </trkpt>
      <trkpt lat="45.90551" lon="6.16514">
        <ele>600</ele>
        <time>2013-05-05T14:58:12Z</time>
      </trkpt>
      <trkpt lat="45.9054" lon="6.1651">
        <ele>597</ele>
        <time>2013-05-05T14:58:29Z</time>
      </trkpt>
      <trkpt lat="45.90526" lon="6.16497">
        <ele>594</ele>
        <time>2013-05-05T14:58:43Z</time>
      </trkpt>
      <trkpt lat="45.90512" lon="6.16489">
        <ele>593</ele>
        <time>2013-05-05T14:58:54Z</time>
      </trkpt>
      <trkpt lat="45.90501" lon="6.16486">
        <ele>590</ele>
        <time>2013-05-05T14:59:05Z</time>
      </trkpt>
      <trkpt lat="45.90496" lon="6.16485">
        <ele>590</ele>
        <time>2013-05-05T14:59:07Z</time>
      </trkpt>
      <trkpt lat="45.90484" lon="6.16488">
        <ele>588</ele>
        <time>2013-05-05T14:59:18Z</time>
      </trkpt>
      <trkpt lat="45.90487" lon="6.16488">
        <ele>587</ele>
        <time>2013-05-05T14:59:24Z</time>
      </trkpt>
      <trkpt lat="45.90489" lon="6.1648">
        <ele>585</ele>
        <time>2013-05-05T14:59:33Z</time>
      </trkpt>
      <trkpt lat="45.90485" lon="6.16472">
        <ele>585</ele>
        <time>2013-05-05T14:59:42Z</time>
      </trkpt>
      <trkpt lat="45.90469" lon="6.16463">
        <ele>582</ele>
        <time>2013-05-05T14:59:59Z</time>
      </trkpt>
      <trkpt lat="45.90474" lon="6.1647">
        <ele>578</ele>
        <time>2013-05-05T15:00:10Z</time>
      </trkpt>
      <trkpt lat="45.90473" lon="6.16458">
        <ele>575</ele>
        <time>2013-05-05T15:00:21Z</time>
      </trkpt>
      <trkpt lat="45.90453" lon="6.16447">
        <ele>573</ele>
        <time>2013-05-05T15:00:33Z</time>
      </trkpt>
      <trkpt lat="45.90438" lon="6.1644">
        <ele>570</ele>
        <time>2013-05-05T15:00:47Z</time>
      </trkpt>
      <trkpt lat="45.90425" lon="6.16435">
        <ele>568</ele>
        <time>2013-05-05T15:00:59Z</time>
      </trkpt>
      <trkpt lat="45.90432" lon="6.16435">
        <ele>565</ele>
        <time>2013-05-05T15:01:07Z</time>
      </trkpt>
      <trkpt lat="45.90438" lon="6.16436">
        <ele>562</ele>
        <time>2013-05-05T15:01:18Z</time>
      </trkpt>
      <trkpt lat="45.9045" lon="6.16432">
        <ele>559</ele>
        <time>2013-05-05T15:01:35Z</time>
      </trkpt>
      <trkpt lat="45.90469" lon="6.16436">
        <ele>555</ele>
        <time>2013-05-05T15:01:52Z</time>
      </trkpt>
      <trkpt lat="45.9047" lon="6.16435">
        <ele>555</ele>
        <time>2013-05-05T15:01:53Z</time>
      </trkpt>
      <trkpt lat="45.90474" lon="6.16431">
        <ele>555</ele>
        <time>2013-05-05T15:01:57Z</time>
      </trkpt>
      <trkpt lat="45.90479" lon="6.16424">
        <ele>552</ele>
        <time>2013-05-05T15:02:07Z</time>
      </trkpt>
      <trkpt lat="45.90461" lon="6.16416">
        <ele>549</ele>
        <time>2013-05-05T15:02:19Z</time>
      </trkpt>
      <trkpt lat="45.90448" lon="6.16406">
        <ele>546</ele>
        <time>2013-05-05T15:02:35Z</time>
      </trkpt>
      <trkpt lat="45.90454" lon="6.16409">
        <ele>545</ele>
        <time>2013-05-05T15:02:41Z</time>
      </trkpt>
      <trkpt lat="45.90463" lon="6.16412">
        <ele>543</ele>
        <time>2013-05-05T15:02:53Z</time>
      </trkpt>
      <trkpt lat="45.90486" lon="6.16406">
        <ele>541</ele>
        <time>2013-05-05T15:03:07Z</time>
      </trkpt>
      <trkpt lat="45.90497" lon="6.16405">
        <ele>539</ele>
        <time>2013-05-05T15:03:19Z</time>
      </trkpt>
      <trkpt lat="45.90507" lon="6.16403">
        <ele>538</ele>
        <time>2013-05-05T15:03:34Z</time>
      </trkpt>
      <trkpt lat="45.90525" lon="6.16404">
        <ele>538</ele>
        <time>2013-05-05T15:04:09Z</time>
      </trkpt>
      <trkpt lat="45.90528" lon="6.16403">
        <ele>538</ele>
        <time>2013-05-05T15:04:48Z</time>
      </trkpt>
      <trkpt lat="45.90518" lon="6.16409">
        <ele>537</ele>
        <time>2013-05-05T15:05:31Z</time>
      </trkpt>
      <trkpt lat="45.9052" lon="6.16406">
        <ele>538</ele>
        <time>2013-05-05T15:06:27Z</time>
      </trkpt>
      <trkpt lat="45.9052" lon="6.16406">
        <ele>538</ele>
        <time>2013-05-05T15:06:28Z</time>
      </trkpt>
      <trkpt lat="45.90525" lon="6.16409">
        <ele>536</ele>
        <time>2013-05-05T15:06:53Z</time>
      </trkpt>
      <trkpt lat="45.90521" lon="6.16412">
        <ele>537</ele>
        <time>2013-05-05T15:07:38Z</time>
      </trkpt>
      <trkpt lat="45.9052" lon="6.16412">
        <ele>537</ele>
        <time>2013-05-05T15:08:10Z</time>
      </trkpt>
      <trkpt lat="45.90528" lon="6.16408">
        <ele>538</ele>
        <time>2013-05-05T15:08:50Z</time>
      </trkpt>
      <trkpt lat="45.90526" lon="6.16406">
        <ele>537</ele>
        <time>2013-05-05T15:09:13Z</time>
      </trkpt>
      <trkpt lat="45.90522" lon="6.16399">
        <ele>536</ele>
        <time>2013-05-05T15:09:32Z</time>
      </trkpt>
      <trkpt lat="45.90512" lon="6.16391">
        <ele>533</ele>
        <time>2013-05-05T15:09:48Z</time>
      </trkpt>
      <trkpt lat="45.90502" lon="6.16384">
        <ele>530</ele>
        <time>2013-05-05T15:10:01Z</time>
      </trkpt>
      <trkpt lat="45.9049" lon="6.16381">
        <ele>529</ele>
        <time>2013-05-05T15:10:12Z</time>
      </trkpt>
      <trkpt lat="45.90481" lon="6.16374">
        <ele>526</ele>
        <time>2013-05-05T15:10:26Z</time>
      </trkpt>
      <trkpt lat="45.90474" lon="6.16366">
        <ele>523</ele>
        <time>2013-05-05T15:10:37Z</time>
      </trkpt>
      <trkpt lat="45.90463" lon="6.16354">
        <ele>520</ele>
        <time>2013-05-05T15:11:02Z</time>
      </trkpt>
      <trkpt lat="45.90463" lon="6.16345">
        <ele>517</ele>
        <time>2013-05-05T15:11:12Z</time>
      </trkpt>
      <trkpt lat="45.90458" lon="6.16331">
        <ele>515</ele>
        <time>2013-05-05T15:11:26Z</time>
      </trkpt>
      <trkpt lat="45.90458" lon="6.16322">
        <ele>513</ele>
        <time>2013-05-05T15:11:35Z</time>
      </trkpt>
      <trkpt lat="45.90458" lon="6.16306">
        <ele>510</ele>
        <time>2013-05-05T15:11:48Z</time>
      </trkpt>
      <trkpt lat="45.90459" lon="6.16299">
        <ele>509</ele>
        <time>2013-05-05T15:11:55Z</time>
      </trkpt>
      <trkpt lat="45.90459" lon="6.16286">
        <ele>505</ele>
        <time>2013-05-05T15:12:06Z</time>
      </trkpt>
      <trkpt lat="45.90459" lon="6.16285">
        <ele>504</ele>
        <time>2013-05-05T15:12:07Z</time>
      </trkpt>
      <trkpt lat="45.90462" lon="6.16267">
        <ele>502</ele>
        <time>2013-05-05T15:12:23Z</time>
      </trkpt>
      <trkpt lat="45.90463" lon="6.16264">
        <ele>500</ele>
        <time>2013-05-05T15:12:27Z</time>
      </trkpt>
      <trkpt lat="45.90463" lon="6.1625">
        <ele>498</ele>
        <time>2013-05-05T15:12:39Z</time>
      </trkpt>
      <trkpt lat="45.90463" lon="6.16237">
        <ele>495</ele>
        <time>2013-05-05T15:12:51Z</time>
      </trkpt>
      <trkpt lat="45.90464" lon="6.16221">
        <ele>493</ele>
        <time>2013-05-05T15:13:05Z</time>
      </trkpt>
      <trkpt lat="45.90461" lon="6.16208">
        <ele>490</ele>
        <time>2013-05-05T15:13:16Z</time>
      </trkpt>
      <trkpt lat="45.90461" lon="6.16194">
        <ele>487</ele>
        <time>2013-05-05T15:13:26Z</time>
      </trkpt>
      <trkpt lat="45.90459" lon="6.16189">
        <ele>486</ele>
        <time>2013-05-05T15:13:30Z</time>
      </trkpt>
      <trkpt lat="45.90453" lon="6.16174">
        <ele>484</ele>
        <time>2013-05-05T15:13:43Z</time>
      </trkpt>
      <trkpt lat="45.90453" lon="6.16173">
        <ele>484</ele>
        <time>2013-05-05T15:13:44Z</time>
      </trkpt>
      <trkpt lat="45.90443" lon="6.1616">
        <ele>482</ele>
        <time>2013-05-05T15:13:59Z</time>
      </trkpt>
      <trkpt lat="45.9044" lon="6.16152">
        <ele>480</ele>
        <time>2013-05-05T15:14:05Z</time>
      </trkpt>
      <trkpt lat="45.90439" lon="6.16151">
        <ele>480</ele>
        <time>2013-05-05T15:14:06Z</time>
      </trkpt>
      <trkpt lat="45.90428" lon="6.16134">
        <ele>477</ele>
        <time>2013-05-05T15:14:22Z</time>
      </trkpt>
      <trkpt lat="45.90426" lon="6.16129">
        <ele>476</ele>
        <time>2013-05-05T15:14:26Z</time>
      </trkpt>
      <trkpt lat="45.90419" lon="6.1611">
        <ele>473</ele>
        <time>2013-05-05T15:14:39Z</time>
      </trkpt>
      <trkpt lat="45.90415" lon="6.16096">
        <ele>471</ele>
        <time>2013-05-05T15:14:51Z</time>
      </trkpt>
      <trkpt lat="45.9041" lon="6.16079">
        <ele>467</ele>
        <time>2013-05-05T15:15:03Z</time>
      </trkpt>
      <trkpt lat="45.90404" lon="6.16059">
        <ele>465</ele>
        <time>2013-05-05T15:15:19Z</time>
      </trkpt>
      <trkpt lat="45.90404" lon="6.16057">
        <ele>465</ele>
        <time>2013-05-05T15:15:20Z</time>
      </trkpt>
      <trkpt lat="45.90399" lon="6.16043">
        <ele>464</ele>
        <time>2013-05-05T15:15:35Z</time>
      </trkpt>
      <trkpt lat="45.90393" lon="6.16023">
        <ele>462</ele>
        <time>2013-05-05T15:15:51Z</time>
      </trkpt>
      <trkpt lat="45.90394" lon="6.16014">
        <ele>460</ele>
        <time>2013-05-05T15:16:03Z</time>
      </trkpt>
      <trkpt lat="45.904" lon="6.16012">
        <ele>460</ele>
        <time>2013-05-05T15:16:37Z</time>
      </trkpt>
      <trkpt lat="45.90402" lon="6.1601">
        <ele>460</ele>
        <time>2013-05-05T15:17:04Z</time>
      </trkpt>
      <trkpt lat="45.90399" lon="6.16008">
        <ele>460</ele>
        <time>2013-05-05T15:17:25Z</time>
      </trkpt>
      <trkpt lat="45.90403" lon="6.15996">
        <ele>458</ele>
        <time>2013-05-05T15:17:41Z</time>
      </trkpt>
      <trkpt lat="45.90404" lon="6.15993">
        <ele>457</ele>
        <time>2013-05-05T15:17:44Z</time>
      </trkpt>
      <trkpt lat="45.90413" lon="6.15985">
        <ele>457</ele>
        <time>2013-05-05T15:18:01Z</time>
      </trkpt>
      <trkpt lat="45.90415" lon="6.15984">
        <ele>457</ele>
        <time>2013-05-05T15:18:39Z</time>
      </trkpt>
      <trkpt lat="45.90412" lon="6.15982">
        <ele>457</ele>
        <time>2013-05-05T15:19:02Z</time>
      </trkpt>
      <trkpt lat="45.90412" lon="6.1598">
        <ele>457</ele>
        <time>2013-05-05T15:19:30Z</time>
      </trkpt>
      <trkpt lat="45.90413" lon="6.15986">
        <ele>457</ele>
        <time>2013-05-05T15:20:06Z</time>
      </trkpt>
      <trkpt lat="45.90418" lon="6.15986">
        <ele>456</ele>
        <time>2013-05-05T15:20:33Z</time>
      </trkpt>
      <trkpt lat="45.90417" lon="6.15985">
        <ele>455</ele>
        <time>2013-05-05T15:21:03Z</time>
      </trkpt>
    </trkseg>
  </trk>
</gpx>